<?xml version="1.0" encoding="UTF-8" standalone="no" ?>
<gpx xmlns="http://www.topografix.com/GPX/1/1" xmlns:xsi="http://www.w3.org/2001/XMLSchema-instance" xsi:schemaLocation="http://www.topografix.com/GPX/1/1 http://www.topografix.com/GPX/1/1/gpx.xsd" version="1.1" creator="VisuGPX - https://www.visugpx.com">
  <metadata>
    <name>plateau de Gavot.gpx</name>
  </metadata>
  <trk>
    <name><![CDATA[plateau de Gavot.gpx]]></name>
    <trkseg>
      <trkpt lat="46.37694" lon="6.5288">
        <ele>565.7</ele>
        <time>2020-10-18T08:33:55Z</time>
      </trkpt>
      <trkpt lat="46.37703" lon="6.52875">
        <ele>548.3939</ele>
        <time>2020-10-18T08:34:00Z</time>
      </trkpt>
      <trkpt lat="46.37695" lon="6.52858">
        <ele>548.37494</ele>
        <time>2020-10-18T08:34:05Z</time>
      </trkpt>
      <trkpt lat="46.37687" lon="6.5285">
        <ele>548.51917</ele>
        <time>2020-10-18T08:34:10Z</time>
      </trkpt>
      <trkpt lat="46.37679" lon="6.52846">
        <ele>548.66144</ele>
        <time>2020-10-18T08:34:15Z</time>
      </trkpt>
      <trkpt lat="46.37668" lon="6.52842">
        <ele>549.07025</ele>
        <time>2020-10-18T08:34:20Z</time>
      </trkpt>
      <trkpt lat="46.37656" lon="6.52837">
        <ele>549.35077</ele>
        <time>2020-10-18T08:34:25Z</time>
      </trkpt>
      <trkpt lat="46.37646" lon="6.52833">
        <ele>550.1373</ele>
        <time>2020-10-18T08:34:30Z</time>
      </trkpt>
      <trkpt lat="46.37637" lon="6.52829">
        <ele>551.6985</ele>
        <time>2020-10-18T08:34:35Z</time>
      </trkpt>
      <trkpt lat="46.37626" lon="6.52824">
        <ele>553.02625</ele>
        <time>2020-10-18T08:34:40Z</time>
      </trkpt>
      <trkpt lat="46.3762" lon="6.5282">
        <ele>552.92505</ele>
        <time>2020-10-18T08:34:45Z</time>
      </trkpt>
      <trkpt lat="46.37609" lon="6.52816">
        <ele>552.7126</ele>
        <time>2020-10-18T08:34:50Z</time>
      </trkpt>
      <trkpt lat="46.37598" lon="6.52807">
        <ele>553.1505</ele>
        <time>2020-10-18T08:34:55Z</time>
      </trkpt>
      <trkpt lat="46.37588" lon="6.52798">
        <ele>553.4351</ele>
        <time>2020-10-18T08:35:00Z</time>
      </trkpt>
      <trkpt lat="46.3758" lon="6.52788">
        <ele>553.60846</ele>
        <time>2020-10-18T08:35:05Z</time>
      </trkpt>
      <trkpt lat="46.37571" lon="6.52779">
        <ele>553.6566</ele>
        <time>2020-10-18T08:35:10Z</time>
      </trkpt>
      <trkpt lat="46.37566" lon="6.52785">
        <ele>554.8512</ele>
        <time>2020-10-18T08:35:15Z</time>
      </trkpt>
      <trkpt lat="46.37564" lon="6.52793">
        <ele>555.91156</ele>
        <time>2020-10-18T08:35:20Z</time>
      </trkpt>
      <trkpt lat="46.3756" lon="6.52803">
        <ele>556.98895</ele>
        <time>2020-10-18T08:35:25Z</time>
      </trkpt>
      <trkpt lat="46.37556" lon="6.52813">
        <ele>557.89404</ele>
        <time>2020-10-18T08:35:30Z</time>
      </trkpt>
      <trkpt lat="46.37553" lon="6.52822">
        <ele>558.95154</ele>
        <time>2020-10-18T08:35:35Z</time>
      </trkpt>
      <trkpt lat="46.3755" lon="6.5284">
        <ele>561.0146</ele>
        <time>2020-10-18T08:35:45Z</time>
      </trkpt>
      <trkpt lat="46.3755" lon="6.52848">
        <ele>561.6291</ele>
        <time>2020-10-18T08:35:50Z</time>
      </trkpt>
      <trkpt lat="46.37548" lon="6.52858">
        <ele>562.377</ele>
        <time>2020-10-18T08:35:55Z</time>
      </trkpt>
      <trkpt lat="46.3755" lon="6.52868">
        <ele>563.37054</ele>
        <time>2020-10-18T08:36:00Z</time>
      </trkpt>
      <trkpt lat="46.37551" lon="6.52876">
        <ele>563.8167</ele>
        <time>2020-10-18T08:36:05Z</time>
      </trkpt>
      <trkpt lat="46.37553" lon="6.52886">
        <ele>564.11646</ele>
        <time>2020-10-18T08:36:10Z</time>
      </trkpt>
      <trkpt lat="46.37558" lon="6.52893">
        <ele>564.79126</ele>
        <time>2020-10-18T08:36:15Z</time>
      </trkpt>
      <trkpt lat="46.3756" lon="6.52905">
        <ele>565.31964</ele>
        <time>2020-10-18T08:36:20Z</time>
      </trkpt>
      <trkpt lat="46.37557" lon="6.52912">
        <ele>566.2853</ele>
        <time>2020-10-18T08:36:25Z</time>
      </trkpt>
      <trkpt lat="46.37549" lon="6.52919">
        <ele>566.9621</ele>
        <time>2020-10-18T08:36:30Z</time>
      </trkpt>
      <trkpt lat="46.3754" lon="6.52929">
        <ele>567.7954</ele>
        <time>2020-10-18T08:36:35Z</time>
      </trkpt>
      <trkpt lat="46.37532" lon="6.52941">
        <ele>568.62274</ele>
        <time>2020-10-18T08:36:40Z</time>
      </trkpt>
      <trkpt lat="46.37523" lon="6.5295">
        <ele>569.23145</ele>
        <time>2020-10-18T08:36:45Z</time>
      </trkpt>
      <trkpt lat="46.37514" lon="6.52958">
        <ele>569.8442</ele>
        <time>2020-10-18T08:36:50Z</time>
      </trkpt>
      <trkpt lat="46.37503" lon="6.52968">
        <ele>570.6776</ele>
        <time>2020-10-18T08:36:55Z</time>
      </trkpt>
      <trkpt lat="46.37495" lon="6.52976">
        <ele>571.7407</ele>
        <time>2020-10-18T08:37:00Z</time>
      </trkpt>
      <trkpt lat="46.37484" lon="6.52979">
        <ele>572.5251</ele>
        <time>2020-10-18T08:37:05Z</time>
      </trkpt>
      <trkpt lat="46.37474" lon="6.52978">
        <ele>573.24023</ele>
        <time>2020-10-18T08:37:10Z</time>
      </trkpt>
      <trkpt lat="46.37468" lon="6.52977">
        <ele>573.8922</ele>
        <time>2020-10-18T08:37:15Z</time>
      </trkpt>
      <trkpt lat="46.37461" lon="6.52973">
        <ele>574.36163</ele>
        <time>2020-10-18T08:37:20Z</time>
      </trkpt>
      <trkpt lat="46.37456" lon="6.52967">
        <ele>574.52313</ele>
        <time>2020-10-18T08:37:25Z</time>
      </trkpt>
      <trkpt lat="46.37451" lon="6.52963">
        <ele>575.12103</ele>
        <time>2020-10-18T08:37:30Z</time>
      </trkpt>
      <trkpt lat="46.37446" lon="6.52959">
        <ele>575.5002</ele>
        <time>2020-10-18T08:37:35Z</time>
      </trkpt>
      <trkpt lat="46.37441" lon="6.52951">
        <ele>575.9837</ele>
        <time>2020-10-18T08:37:40Z</time>
      </trkpt>
      <trkpt lat="46.37435" lon="6.52946">
        <ele>576.3539</ele>
        <time>2020-10-18T08:37:45Z</time>
      </trkpt>
      <trkpt lat="46.37431" lon="6.52942">
        <ele>576.39703</ele>
        <time>2020-10-18T08:37:50Z</time>
      </trkpt>
      <trkpt lat="46.37425" lon="6.52935">
        <ele>577.22565</ele>
        <time>2020-10-18T08:37:55Z</time>
      </trkpt>
      <trkpt lat="46.37419" lon="6.52932">
        <ele>577.24475</ele>
        <time>2020-10-18T08:38:00Z</time>
      </trkpt>
      <trkpt lat="46.37413" lon="6.52927">
        <ele>577.55475</ele>
        <time>2020-10-18T08:38:05Z</time>
      </trkpt>
      <trkpt lat="46.37408" lon="6.52921">
        <ele>577.79553</ele>
        <time>2020-10-18T08:38:10Z</time>
      </trkpt>
      <trkpt lat="46.37401" lon="6.52916">
        <ele>578.28107</ele>
        <time>2020-10-18T08:38:15Z</time>
      </trkpt>
      <trkpt lat="46.37395" lon="6.52914">
        <ele>578.7416</ele>
        <time>2020-10-18T08:38:20Z</time>
      </trkpt>
      <trkpt lat="46.37389" lon="6.52909">
        <ele>578.879</ele>
        <time>2020-10-18T08:38:25Z</time>
      </trkpt>
      <trkpt lat="46.37378" lon="6.529">
        <ele>579.776</ele>
        <time>2020-10-18T08:38:35Z</time>
      </trkpt>
      <trkpt lat="46.37368" lon="6.5289">
        <ele>580.21246</ele>
        <time>2020-10-18T08:38:40Z</time>
      </trkpt>
      <trkpt lat="46.37357" lon="6.52879">
        <ele>580.73724</ele>
        <time>2020-10-18T08:38:45Z</time>
      </trkpt>
      <trkpt lat="46.37346" lon="6.52867">
        <ele>581.40546</ele>
        <time>2020-10-18T08:38:50Z</time>
      </trkpt>
      <trkpt lat="46.37338" lon="6.52855">
        <ele>581.74963</ele>
        <time>2020-10-18T08:38:55Z</time>
      </trkpt>
      <trkpt lat="46.3733" lon="6.52843">
        <ele>581.7336</ele>
        <time>2020-10-18T08:39:00Z</time>
      </trkpt>
      <trkpt lat="46.37322" lon="6.52832">
        <ele>582.1089</ele>
        <time>2020-10-18T08:39:05Z</time>
      </trkpt>
      <trkpt lat="46.37313" lon="6.5282">
        <ele>582.30756</ele>
        <time>2020-10-18T08:39:10Z</time>
      </trkpt>
      <trkpt lat="46.37305" lon="6.52808">
        <ele>582.50726</ele>
        <time>2020-10-18T08:39:15Z</time>
      </trkpt>
      <trkpt lat="46.37298" lon="6.52798">
        <ele>582.2564</ele>
        <time>2020-10-18T08:39:20Z</time>
      </trkpt>
      <trkpt lat="46.37288" lon="6.52788">
        <ele>582.5524</ele>
        <time>2020-10-18T08:39:25Z</time>
      </trkpt>
      <trkpt lat="46.37278" lon="6.52777">
        <ele>582.8765</ele>
        <time>2020-10-18T08:39:30Z</time>
      </trkpt>
      <trkpt lat="46.37268" lon="6.52766">
        <ele>582.87054</ele>
        <time>2020-10-18T08:39:35Z</time>
      </trkpt>
      <trkpt lat="46.37259" lon="6.52755">
        <ele>583.20465</ele>
        <time>2020-10-18T08:39:40Z</time>
      </trkpt>
      <trkpt lat="46.37249" lon="6.52745">
        <ele>583.30804</ele>
        <time>2020-10-18T08:39:45Z</time>
      </trkpt>
      <trkpt lat="46.3724" lon="6.52737">
        <ele>583.7044</ele>
        <time>2020-10-18T08:39:50Z</time>
      </trkpt>
      <trkpt lat="46.37231" lon="6.52729">
        <ele>584.16907</ele>
        <time>2020-10-18T08:39:55Z</time>
      </trkpt>
      <trkpt lat="46.3722" lon="6.52723">
        <ele>585.03613</ele>
        <time>2020-10-18T08:40:00Z</time>
      </trkpt>
      <trkpt lat="46.37209" lon="6.52718">
        <ele>585.564</ele>
        <time>2020-10-18T08:40:05Z</time>
      </trkpt>
      <trkpt lat="46.37201" lon="6.52716">
        <ele>586.2274</ele>
        <time>2020-10-18T08:40:10Z</time>
      </trkpt>
      <trkpt lat="46.37191" lon="6.52717">
        <ele>587.3364</ele>
        <time>2020-10-18T08:40:15Z</time>
      </trkpt>
      <trkpt lat="46.37182" lon="6.52719">
        <ele>588.28394</ele>
        <time>2020-10-18T08:40:20Z</time>
      </trkpt>
      <trkpt lat="46.37174" lon="6.52721">
        <ele>589.3499</ele>
        <time>2020-10-18T08:40:25Z</time>
      </trkpt>
      <trkpt lat="46.37162" lon="6.52725">
        <ele>590.60767</ele>
        <time>2020-10-18T08:40:30Z</time>
      </trkpt>
      <trkpt lat="46.37152" lon="6.52732">
        <ele>591.9288</ele>
        <time>2020-10-18T08:40:35Z</time>
      </trkpt>
      <trkpt lat="46.37143" lon="6.52737">
        <ele>592.8825</ele>
        <time>2020-10-18T08:40:40Z</time>
      </trkpt>
      <trkpt lat="46.37137" lon="6.52737">
        <ele>593.6957</ele>
        <time>2020-10-18T08:40:45Z</time>
      </trkpt>
      <trkpt lat="46.37132" lon="6.52731">
        <ele>594.0963</ele>
        <time>2020-10-18T08:40:50Z</time>
      </trkpt>
      <trkpt lat="46.37127" lon="6.52725">
        <ele>594.03</ele>
        <time>2020-10-18T08:40:55Z</time>
      </trkpt>
      <trkpt lat="46.37123" lon="6.52719">
        <ele>594.4186</ele>
        <time>2020-10-18T08:41:00Z</time>
      </trkpt>
      <trkpt lat="46.37118" lon="6.52713">
        <ele>594.5943</ele>
        <time>2020-10-18T08:41:05Z</time>
      </trkpt>
      <trkpt lat="46.37111" lon="6.52703">
        <ele>594.71674</ele>
        <time>2020-10-18T08:41:15Z</time>
      </trkpt>
      <trkpt lat="46.37106" lon="6.52698">
        <ele>594.91254</ele>
        <time>2020-10-18T08:41:20Z</time>
      </trkpt>
      <trkpt lat="46.37102" lon="6.5269">
        <ele>595.06915</ele>
        <time>2020-10-18T08:41:25Z</time>
      </trkpt>
      <trkpt lat="46.37096" lon="6.5268">
        <ele>594.8754</ele>
        <time>2020-10-18T08:41:30Z</time>
      </trkpt>
      <trkpt lat="46.37082" lon="6.5266">
        <ele>594.19366</ele>
        <time>2020-10-18T08:41:40Z</time>
      </trkpt>
      <trkpt lat="46.37073" lon="6.5265">
        <ele>594.1063</ele>
        <time>2020-10-18T08:41:45Z</time>
      </trkpt>
      <trkpt lat="46.37063" lon="6.52637">
        <ele>594.2148</ele>
        <time>2020-10-18T08:41:50Z</time>
      </trkpt>
      <trkpt lat="46.37053" lon="6.52624">
        <ele>593.72784</ele>
        <time>2020-10-18T08:41:55Z</time>
      </trkpt>
      <trkpt lat="46.37045" lon="6.52614">
        <ele>594.09125</ele>
        <time>2020-10-18T08:42:00Z</time>
      </trkpt>
      <trkpt lat="46.37035" lon="6.52603">
        <ele>593.9457</ele>
        <time>2020-10-18T08:42:05Z</time>
      </trkpt>
      <trkpt lat="46.37026" lon="6.52591">
        <ele>593.75793</ele>
        <time>2020-10-18T08:42:10Z</time>
      </trkpt>
      <trkpt lat="46.37016" lon="6.52579">
        <ele>593.9949</ele>
        <time>2020-10-18T08:42:15Z</time>
      </trkpt>
      <trkpt lat="46.37008" lon="6.52567">
        <ele>594.0039</ele>
        <time>2020-10-18T08:42:20Z</time>
      </trkpt>
      <trkpt lat="46.37" lon="6.52556">
        <ele>594.55914</ele>
        <time>2020-10-18T08:42:25Z</time>
      </trkpt>
      <trkpt lat="46.36991" lon="6.52546">
        <ele>595.014</ele>
        <time>2020-10-18T08:42:30Z</time>
      </trkpt>
      <trkpt lat="46.3698" lon="6.52541">
        <ele>595.3563</ele>
        <time>2020-10-18T08:42:35Z</time>
      </trkpt>
      <trkpt lat="46.36971" lon="6.52538">
        <ele>595.509</ele>
        <time>2020-10-18T08:42:40Z</time>
      </trkpt>
      <trkpt lat="46.3696" lon="6.52535">
        <ele>595.88446</ele>
        <time>2020-10-18T08:42:45Z</time>
      </trkpt>
      <trkpt lat="46.36949" lon="6.52532">
        <ele>596.17865</ele>
        <time>2020-10-18T08:42:50Z</time>
      </trkpt>
      <trkpt lat="46.36937" lon="6.52531">
        <ele>596.19574</ele>
        <time>2020-10-18T08:42:55Z</time>
      </trkpt>
      <trkpt lat="46.36925" lon="6.52531">
        <ele>596.03</ele>
        <time>2020-10-18T08:43:00Z</time>
      </trkpt>
      <trkpt lat="46.36913" lon="6.52529">
        <ele>595.70276</ele>
        <time>2020-10-18T08:43:05Z</time>
      </trkpt>
      <trkpt lat="46.36903" lon="6.52524">
        <ele>594.73883</ele>
        <time>2020-10-18T08:43:10Z</time>
      </trkpt>
      <trkpt lat="46.36892" lon="6.5252">
        <ele>594.47076</ele>
        <time>2020-10-18T08:43:15Z</time>
      </trkpt>
      <trkpt lat="46.36881" lon="6.52513">
        <ele>593.8463</ele>
        <time>2020-10-18T08:43:20Z</time>
      </trkpt>
      <trkpt lat="46.36869" lon="6.52505">
        <ele>593.6013</ele>
        <time>2020-10-18T08:43:25Z</time>
      </trkpt>
      <trkpt lat="46.36858" lon="6.52497">
        <ele>593.2369</ele>
        <time>2020-10-18T08:43:30Z</time>
      </trkpt>
      <trkpt lat="46.36847" lon="6.52488">
        <ele>593.1746</ele>
        <time>2020-10-18T08:43:35Z</time>
      </trkpt>
      <trkpt lat="46.36836" lon="6.52478">
        <ele>592.96484</ele>
        <time>2020-10-18T08:43:40Z</time>
      </trkpt>
      <trkpt lat="46.36826" lon="6.5247">
        <ele>592.79315</ele>
        <time>2020-10-18T08:43:45Z</time>
      </trkpt>
      <trkpt lat="46.36816" lon="6.52463">
        <ele>592.7851</ele>
        <time>2020-10-18T08:43:50Z</time>
      </trkpt>
      <trkpt lat="46.36805" lon="6.52456">
        <ele>592.4267</ele>
        <time>2020-10-18T08:43:55Z</time>
      </trkpt>
      <trkpt lat="46.36795" lon="6.52451">
        <ele>592.4749</ele>
        <time>2020-10-18T08:44:00Z</time>
      </trkpt>
      <trkpt lat="46.36783" lon="6.52448">
        <ele>592.20984</ele>
        <time>2020-10-18T08:44:05Z</time>
      </trkpt>
      <trkpt lat="46.3677" lon="6.52443">
        <ele>591.7471</ele>
        <time>2020-10-18T08:44:10Z</time>
      </trkpt>
      <trkpt lat="46.36749" lon="6.52435">
        <ele>591.38367</ele>
        <time>2020-10-18T08:44:19Z</time>
      </trkpt>
      <trkpt lat="46.36735" lon="6.52427">
        <ele>591.17285</ele>
        <time>2020-10-18T08:44:25Z</time>
      </trkpt>
      <trkpt lat="46.36723" lon="6.52422">
        <ele>591.07245</ele>
        <time>2020-10-18T08:44:30Z</time>
      </trkpt>
      <trkpt lat="46.36712" lon="6.52416">
        <ele>590.952</ele>
        <time>2020-10-18T08:44:35Z</time>
      </trkpt>
      <trkpt lat="46.36701" lon="6.52408">
        <ele>590.8898</ele>
        <time>2020-10-18T08:44:40Z</time>
      </trkpt>
      <trkpt lat="46.36692" lon="6.52411">
        <ele>591.1347</ele>
        <time>2020-10-18T08:44:45Z</time>
      </trkpt>
      <trkpt lat="46.36689" lon="6.52428">
        <ele>591.79626</ele>
        <time>2020-10-18T08:44:50Z</time>
      </trkpt>
      <trkpt lat="46.36688" lon="6.52445">
        <ele>592.35645</ele>
        <time>2020-10-18T08:44:55Z</time>
      </trkpt>
      <trkpt lat="46.36686" lon="6.52462">
        <ele>593.265</ele>
        <time>2020-10-18T08:45:00Z</time>
      </trkpt>
      <trkpt lat="46.36684" lon="6.52478">
        <ele>593.7067</ele>
        <time>2020-10-18T08:45:05Z</time>
      </trkpt>
      <trkpt lat="46.36682" lon="6.52491">
        <ele>594.94666</ele>
        <time>2020-10-18T08:45:10Z</time>
      </trkpt>
      <trkpt lat="46.36681" lon="6.52505">
        <ele>595.9819</ele>
        <time>2020-10-18T08:45:15Z</time>
      </trkpt>
      <trkpt lat="46.36679" lon="6.52518">
        <ele>596.88153</ele>
        <time>2020-10-18T08:45:20Z</time>
      </trkpt>
      <trkpt lat="46.36676" lon="6.52529">
        <ele>597.3203</ele>
        <time>2020-10-18T08:45:25Z</time>
      </trkpt>
      <trkpt lat="46.36675" lon="6.52542">
        <ele>598.01117</ele>
        <time>2020-10-18T08:45:30Z</time>
      </trkpt>
      <trkpt lat="46.36671" lon="6.52556">
        <ele>598.6238</ele>
        <time>2020-10-18T08:45:35Z</time>
      </trkpt>
      <trkpt lat="46.36666" lon="6.52571">
        <ele>599.10077</ele>
        <time>2020-10-18T08:45:40Z</time>
      </trkpt>
      <trkpt lat="46.3666" lon="6.52583">
        <ele>599.66815</ele>
        <time>2020-10-18T08:45:45Z</time>
      </trkpt>
      <trkpt lat="46.36654" lon="6.52592">
        <ele>600.0528</ele>
        <time>2020-10-18T08:45:50Z</time>
      </trkpt>
      <trkpt lat="46.36649" lon="6.52602">
        <ele>600.6071</ele>
        <time>2020-10-18T08:45:55Z</time>
      </trkpt>
      <trkpt lat="46.36644" lon="6.5261">
        <ele>600.98975</ele>
        <time>2020-10-18T08:46:00Z</time>
      </trkpt>
      <trkpt lat="46.3664" lon="6.52618">
        <ele>601.4427</ele>
        <time>2020-10-18T08:46:05Z</time>
      </trkpt>
      <trkpt lat="46.36636" lon="6.52625">
        <ele>602.02124</ele>
        <time>2020-10-18T08:46:10Z</time>
      </trkpt>
      <trkpt lat="46.36633" lon="6.52631">
        <ele>602.6299</ele>
        <time>2020-10-18T08:46:15Z</time>
      </trkpt>
      <trkpt lat="46.3663" lon="6.5264">
        <ele>603.2315</ele>
        <time>2020-10-18T08:46:20Z</time>
      </trkpt>
      <trkpt lat="46.36628" lon="6.52647">
        <ele>604.1646</ele>
        <time>2020-10-18T08:46:25Z</time>
      </trkpt>
      <trkpt lat="46.36625" lon="6.52655">
        <ele>604.9953</ele>
        <time>2020-10-18T08:46:30Z</time>
      </trkpt>
      <trkpt lat="46.36622" lon="6.52666">
        <ele>605.4644</ele>
        <time>2020-10-18T08:46:35Z</time>
      </trkpt>
      <trkpt lat="46.3662" lon="6.52676">
        <ele>605.818</ele>
        <time>2020-10-18T08:46:40Z</time>
      </trkpt>
      <trkpt lat="46.36618" lon="6.52683">
        <ele>606.1334</ele>
        <time>2020-10-18T08:46:45Z</time>
      </trkpt>
      <trkpt lat="46.36615" lon="6.52692">
        <ele>606.4338</ele>
        <time>2020-10-18T08:46:50Z</time>
      </trkpt>
      <trkpt lat="46.36611" lon="6.527">
        <ele>607.1199</ele>
        <time>2020-10-18T08:46:55Z</time>
      </trkpt>
      <trkpt lat="46.36609" lon="6.52709">
        <ele>607.6363</ele>
        <time>2020-10-18T08:47:00Z</time>
      </trkpt>
      <trkpt lat="46.36606" lon="6.5272">
        <ele>608.46204</ele>
        <time>2020-10-18T08:47:05Z</time>
      </trkpt>
      <trkpt lat="46.36602" lon="6.5273">
        <ele>608.9875</ele>
        <time>2020-10-18T08:47:10Z</time>
      </trkpt>
      <trkpt lat="46.36598" lon="6.52738">
        <ele>609.54407</ele>
        <time>2020-10-18T08:47:15Z</time>
      </trkpt>
      <trkpt lat="46.36594" lon="6.52746">
        <ele>610.6583</ele>
        <time>2020-10-18T08:47:20Z</time>
      </trkpt>
      <trkpt lat="46.3659" lon="6.52754">
        <ele>611.63196</ele>
        <time>2020-10-18T08:47:25Z</time>
      </trkpt>
      <trkpt lat="46.36586" lon="6.52763">
        <ele>612.5765</ele>
        <time>2020-10-18T08:47:30Z</time>
      </trkpt>
      <trkpt lat="46.36581" lon="6.52775">
        <ele>613.6075</ele>
        <time>2020-10-18T08:47:40Z</time>
      </trkpt>
      <trkpt lat="46.36577" lon="6.52781">
        <ele>614.34906</ele>
        <time>2020-10-18T08:47:45Z</time>
      </trkpt>
      <trkpt lat="46.36574" lon="6.5279">
        <ele>615.22235</ele>
        <time>2020-10-18T08:47:50Z</time>
      </trkpt>
      <trkpt lat="46.3657" lon="6.52797">
        <ele>615.6495</ele>
        <time>2020-10-18T08:47:55Z</time>
      </trkpt>
      <trkpt lat="46.36567" lon="6.52805">
        <ele>616.50775</ele>
        <time>2020-10-18T08:48:00Z</time>
      </trkpt>
      <trkpt lat="46.36562" lon="6.52814">
        <ele>616.7339</ele>
        <time>2020-10-18T08:48:05Z</time>
      </trkpt>
      <trkpt lat="46.36559" lon="6.52821">
        <ele>617.4193</ele>
        <time>2020-10-18T08:48:10Z</time>
      </trkpt>
      <trkpt lat="46.36558" lon="6.52828">
        <ele>618.0203</ele>
        <time>2020-10-18T08:48:15Z</time>
      </trkpt>
      <trkpt lat="46.36562" lon="6.52839">
        <ele>618.4093</ele>
        <time>2020-10-18T08:48:20Z</time>
      </trkpt>
      <trkpt lat="46.36567" lon="6.52848">
        <ele>618.9541</ele>
        <time>2020-10-18T08:48:25Z</time>
      </trkpt>
      <trkpt lat="46.36571" lon="6.52852">
        <ele>619.53705</ele>
        <time>2020-10-18T08:48:30Z</time>
      </trkpt>
      <trkpt lat="46.36576" lon="6.52858">
        <ele>619.90497</ele>
        <time>2020-10-18T08:48:35Z</time>
      </trkpt>
      <trkpt lat="46.36581" lon="6.52864">
        <ele>620.7493</ele>
        <time>2020-10-18T08:48:40Z</time>
      </trkpt>
      <trkpt lat="46.36588" lon="6.52871">
        <ele>621.37756</ele>
        <time>2020-10-18T08:48:45Z</time>
      </trkpt>
      <trkpt lat="46.366" lon="6.5289">
        <ele>622.7598</ele>
        <time>2020-10-18T08:48:54Z</time>
      </trkpt>
      <trkpt lat="46.36596" lon="6.52902">
        <ele>623.35596</ele>
        <time>2020-10-18T08:48:59Z</time>
      </trkpt>
      <trkpt lat="46.36589" lon="6.52914">
        <ele>623.81744</ele>
        <time>2020-10-18T08:49:04Z</time>
      </trkpt>
      <trkpt lat="46.36579" lon="6.52928">
        <ele>624.2618</ele>
        <time>2020-10-18T08:49:10Z</time>
      </trkpt>
      <trkpt lat="46.36571" lon="6.52938">
        <ele>624.2859</ele>
        <time>2020-10-18T08:49:15Z</time>
      </trkpt>
      <trkpt lat="46.36563" lon="6.52949">
        <ele>624.4317</ele>
        <time>2020-10-18T08:49:20Z</time>
      </trkpt>
      <trkpt lat="46.36555" lon="6.52959">
        <ele>624.08984</ele>
        <time>2020-10-18T08:49:25Z</time>
      </trkpt>
      <trkpt lat="46.36547" lon="6.52968">
        <ele>623.9149</ele>
        <time>2020-10-18T08:49:30Z</time>
      </trkpt>
      <trkpt lat="46.36539" lon="6.52977">
        <ele>624.0708</ele>
        <time>2020-10-18T08:49:35Z</time>
      </trkpt>
      <trkpt lat="46.36522" lon="6.52998">
        <ele>624.1522</ele>
        <time>2020-10-18T08:49:45Z</time>
      </trkpt>
      <trkpt lat="46.36512" lon="6.53007">
        <ele>624.28394</ele>
        <time>2020-10-18T08:49:50Z</time>
      </trkpt>
      <trkpt lat="46.36504" lon="6.53016">
        <ele>624.5011</ele>
        <time>2020-10-18T08:49:55Z</time>
      </trkpt>
      <trkpt lat="46.36494" lon="6.53024">
        <ele>624.87006</ele>
        <time>2020-10-18T08:50:00Z</time>
      </trkpt>
      <trkpt lat="46.36486" lon="6.53034">
        <ele>624.79065</ele>
        <time>2020-10-18T08:50:05Z</time>
      </trkpt>
      <trkpt lat="46.36477" lon="6.53042">
        <ele>625.0319</ele>
        <time>2020-10-18T08:50:10Z</time>
      </trkpt>
      <trkpt lat="46.36468" lon="6.53052">
        <ele>625.34155</ele>
        <time>2020-10-18T08:50:15Z</time>
      </trkpt>
      <trkpt lat="46.36459" lon="6.53057">
        <ele>625.87146</ele>
        <time>2020-10-18T08:50:20Z</time>
      </trkpt>
      <trkpt lat="46.36452" lon="6.53047">
        <ele>625.611</ele>
        <time>2020-10-18T08:50:25Z</time>
      </trkpt>
      <trkpt lat="46.36445" lon="6.53037">
        <ele>624.9736</ele>
        <time>2020-10-18T08:50:30Z</time>
      </trkpt>
      <trkpt lat="46.3644" lon="6.53044">
        <ele>625.3929</ele>
        <time>2020-10-18T08:50:35Z</time>
      </trkpt>
      <trkpt lat="46.36438" lon="6.53073">
        <ele>626.39026</ele>
        <time>2020-10-18T08:50:45Z</time>
      </trkpt>
      <trkpt lat="46.36437" lon="6.53091">
        <ele>626.5914</ele>
        <time>2020-10-18T08:50:50Z</time>
      </trkpt>
      <trkpt lat="46.36435" lon="6.53107">
        <ele>626.93726</ele>
        <time>2020-10-18T08:50:55Z</time>
      </trkpt>
      <trkpt lat="46.36433" lon="6.53124">
        <ele>627.3616</ele>
        <time>2020-10-18T08:51:00Z</time>
      </trkpt>
      <trkpt lat="46.36431" lon="6.53139">
        <ele>627.74365</ele>
        <time>2020-10-18T08:51:05Z</time>
      </trkpt>
      <trkpt lat="46.36428" lon="6.53155">
        <ele>627.4802</ele>
        <time>2020-10-18T08:51:10Z</time>
      </trkpt>
      <trkpt lat="46.36424" lon="6.53169">
        <ele>627.6029</ele>
        <time>2020-10-18T08:51:15Z</time>
      </trkpt>
      <trkpt lat="46.3642" lon="6.53183">
        <ele>627.79694</ele>
        <time>2020-10-18T08:51:20Z</time>
      </trkpt>
      <trkpt lat="46.36414" lon="6.53196">
        <ele>628.2776</ele>
        <time>2020-10-18T08:51:25Z</time>
      </trkpt>
      <trkpt lat="46.36407" lon="6.53208">
        <ele>628.4616</ele>
        <time>2020-10-18T08:51:30Z</time>
      </trkpt>
      <trkpt lat="46.364" lon="6.53221">
        <ele>628.9553</ele>
        <time>2020-10-18T08:51:35Z</time>
      </trkpt>
      <trkpt lat="46.36391" lon="6.53242">
        <ele>630.44366</ele>
        <time>2020-10-18T08:51:45Z</time>
      </trkpt>
      <trkpt lat="46.36395" lon="6.53255">
        <ele>631.3588</ele>
        <time>2020-10-18T08:51:50Z</time>
      </trkpt>
      <trkpt lat="46.364" lon="6.53267">
        <ele>631.3327</ele>
        <time>2020-10-18T08:51:55Z</time>
      </trkpt>
      <trkpt lat="46.36406" lon="6.5328">
        <ele>631.7762</ele>
        <time>2020-10-18T08:52:00Z</time>
      </trkpt>
      <trkpt lat="46.36411" lon="6.53295">
        <ele>632.1805</ele>
        <time>2020-10-18T08:52:05Z</time>
      </trkpt>
      <trkpt lat="46.36417" lon="6.53308">
        <ele>632.4913</ele>
        <time>2020-10-18T08:52:10Z</time>
      </trkpt>
      <trkpt lat="46.36423" lon="6.53322">
        <ele>632.3143</ele>
        <time>2020-10-18T08:52:15Z</time>
      </trkpt>
      <trkpt lat="46.36429" lon="6.53335">
        <ele>632.70447</ele>
        <time>2020-10-18T08:52:20Z</time>
      </trkpt>
      <trkpt lat="46.36436" lon="6.53344">
        <ele>632.8403</ele>
        <time>2020-10-18T08:52:25Z</time>
      </trkpt>
      <trkpt lat="46.36446" lon="6.53354">
        <ele>632.8041</ele>
        <time>2020-10-18T08:52:30Z</time>
      </trkpt>
      <trkpt lat="46.36457" lon="6.53362">
        <ele>632.72864</ele>
        <time>2020-10-18T08:52:35Z</time>
      </trkpt>
      <trkpt lat="46.36467" lon="6.5337">
        <ele>633.0645</ele>
        <time>2020-10-18T08:52:40Z</time>
      </trkpt>
      <trkpt lat="46.36476" lon="6.53379">
        <ele>633.2174</ele>
        <time>2020-10-18T08:52:45Z</time>
      </trkpt>
      <trkpt lat="46.36495" lon="6.53395">
        <ele>634.0723</ele>
        <time>2020-10-18T08:52:55Z</time>
      </trkpt>
      <trkpt lat="46.36505" lon="6.53405">
        <ele>634.4475</ele>
        <time>2020-10-18T08:53:00Z</time>
      </trkpt>
      <trkpt lat="46.36514" lon="6.53414">
        <ele>634.35</ele>
        <time>2020-10-18T08:53:05Z</time>
      </trkpt>
      <trkpt lat="46.36522" lon="6.53422">
        <ele>633.98785</ele>
        <time>2020-10-18T08:53:10Z</time>
      </trkpt>
      <trkpt lat="46.36532" lon="6.53432">
        <ele>633.6117</ele>
        <time>2020-10-18T08:53:15Z</time>
      </trkpt>
      <trkpt lat="46.36542" lon="6.53443">
        <ele>633.5041</ele>
        <time>2020-10-18T08:53:20Z</time>
      </trkpt>
      <trkpt lat="46.3655" lon="6.53456">
        <ele>633.4568</ele>
        <time>2020-10-18T08:53:25Z</time>
      </trkpt>
      <trkpt lat="46.36559" lon="6.53469">
        <ele>633.27875</ele>
        <time>2020-10-18T08:53:30Z</time>
      </trkpt>
      <trkpt lat="46.36567" lon="6.53482">
        <ele>633.30695</ele>
        <time>2020-10-18T08:53:35Z</time>
      </trkpt>
      <trkpt lat="46.36576" lon="6.53496">
        <ele>632.99615</ele>
        <time>2020-10-18T08:53:40Z</time>
      </trkpt>
      <trkpt lat="46.36584" lon="6.53506">
        <ele>633.5684</ele>
        <time>2020-10-18T08:53:45Z</time>
      </trkpt>
      <trkpt lat="46.36592" lon="6.53517">
        <ele>633.3864</ele>
        <time>2020-10-18T08:53:50Z</time>
      </trkpt>
      <trkpt lat="46.36599" lon="6.53528">
        <ele>634.08746</ele>
        <time>2020-10-18T08:53:55Z</time>
      </trkpt>
      <trkpt lat="46.36607" lon="6.53541">
        <ele>634.1367</ele>
        <time>2020-10-18T08:54:00Z</time>
      </trkpt>
      <trkpt lat="46.36614" lon="6.53553">
        <ele>635.6073</ele>
        <time>2020-10-18T08:54:05Z</time>
      </trkpt>
      <trkpt lat="46.36614" lon="6.53567">
        <ele>636.3215</ele>
        <time>2020-10-18T08:54:10Z</time>
      </trkpt>
      <trkpt lat="46.36608" lon="6.53583">
        <ele>637.2892</ele>
        <time>2020-10-18T08:54:19Z</time>
      </trkpt>
      <trkpt lat="46.36606" lon="6.53591">
        <ele>637.6151</ele>
        <time>2020-10-18T08:54:24Z</time>
      </trkpt>
      <trkpt lat="46.36602" lon="6.53597">
        <ele>637.9964</ele>
        <time>2020-10-18T08:54:29Z</time>
      </trkpt>
      <trkpt lat="46.36601" lon="6.53605">
        <ele>638.4873</ele>
        <time>2020-10-18T08:54:34Z</time>
      </trkpt>
      <trkpt lat="46.36596" lon="6.5362">
        <ele>639.1251</ele>
        <time>2020-10-18T08:54:45Z</time>
      </trkpt>
      <trkpt lat="46.36594" lon="6.53632">
        <ele>639.1443</ele>
        <time>2020-10-18T08:54:50Z</time>
      </trkpt>
      <trkpt lat="46.36594" lon="6.53642">
        <ele>639.5487</ele>
        <time>2020-10-18T08:54:55Z</time>
      </trkpt>
      <trkpt lat="46.36593" lon="6.53653">
        <ele>640.098</ele>
        <time>2020-10-18T08:55:00Z</time>
      </trkpt>
      <trkpt lat="46.36591" lon="6.53666">
        <ele>639.9894</ele>
        <time>2020-10-18T08:55:05Z</time>
      </trkpt>
      <trkpt lat="46.3659" lon="6.53683">
        <ele>640.49945</ele>
        <time>2020-10-18T08:55:10Z</time>
      </trkpt>
      <trkpt lat="46.36589" lon="6.537">
        <ele>640.60004</ele>
        <time>2020-10-18T08:55:15Z</time>
      </trkpt>
      <trkpt lat="46.36589" lon="6.53717">
        <ele>640.47327</ele>
        <time>2020-10-18T08:55:20Z</time>
      </trkpt>
      <trkpt lat="46.36589" lon="6.53734">
        <ele>640.2721</ele>
        <time>2020-10-18T08:55:25Z</time>
      </trkpt>
      <trkpt lat="46.36589" lon="6.53748">
        <ele>640.08795</ele>
        <time>2020-10-18T08:55:30Z</time>
      </trkpt>
      <trkpt lat="46.36588" lon="6.53761">
        <ele>639.9421</ele>
        <time>2020-10-18T08:55:35Z</time>
      </trkpt>
      <trkpt lat="46.36588" lon="6.53778">
        <ele>639.97327</ele>
        <time>2020-10-18T08:55:40Z</time>
      </trkpt>
      <trkpt lat="46.36588" lon="6.53794">
        <ele>639.9159</ele>
        <time>2020-10-18T08:55:45Z</time>
      </trkpt>
      <trkpt lat="46.36588" lon="6.53807">
        <ele>639.92395</ele>
        <time>2020-10-18T08:55:50Z</time>
      </trkpt>
      <trkpt lat="46.36586" lon="6.53822">
        <ele>639.8475</ele>
        <time>2020-10-18T08:55:55Z</time>
      </trkpt>
      <trkpt lat="46.36583" lon="6.53838">
        <ele>640.12616</ele>
        <time>2020-10-18T08:56:00Z</time>
      </trkpt>
      <trkpt lat="46.36578" lon="6.53861">
        <ele>640.1151</ele>
        <time>2020-10-18T08:56:05Z</time>
      </trkpt>
      <trkpt lat="46.36574" lon="6.53878">
        <ele>640.3978</ele>
        <time>2020-10-18T08:56:10Z</time>
      </trkpt>
      <trkpt lat="46.36568" lon="6.53888">
        <ele>641.25104</ele>
        <time>2020-10-18T08:56:15Z</time>
      </trkpt>
      <trkpt lat="46.3656" lon="6.53897">
        <ele>641.8436</ele>
        <time>2020-10-18T08:56:20Z</time>
      </trkpt>
      <trkpt lat="46.36551" lon="6.53907">
        <ele>642.1505</ele>
        <time>2020-10-18T08:56:25Z</time>
      </trkpt>
      <trkpt lat="46.36543" lon="6.53914">
        <ele>642.69794</ele>
        <time>2020-10-18T08:56:30Z</time>
      </trkpt>
      <trkpt lat="46.36533" lon="6.53918">
        <ele>643.02594</ele>
        <time>2020-10-18T08:56:35Z</time>
      </trkpt>
      <trkpt lat="46.36523" lon="6.53922">
        <ele>643.30164</ele>
        <time>2020-10-18T08:56:40Z</time>
      </trkpt>
      <trkpt lat="46.36503" lon="6.53929">
        <ele>643.68805</ele>
        <time>2020-10-18T08:56:49Z</time>
      </trkpt>
      <trkpt lat="46.36493" lon="6.53934">
        <ele>643.72424</ele>
        <time>2020-10-18T08:56:54Z</time>
      </trkpt>
      <trkpt lat="46.3648" lon="6.53941">
        <ele>644.08856</ele>
        <time>2020-10-18T08:57:00Z</time>
      </trkpt>
      <trkpt lat="46.36472" lon="6.53947">
        <ele>644.2707</ele>
        <time>2020-10-18T08:57:05Z</time>
      </trkpt>
      <trkpt lat="46.36464" lon="6.53954">
        <ele>644.72754</ele>
        <time>2020-10-18T08:57:10Z</time>
      </trkpt>
      <trkpt lat="46.36454" lon="6.53962">
        <ele>645.3525</ele>
        <time>2020-10-18T08:57:15Z</time>
      </trkpt>
      <trkpt lat="46.36444" lon="6.5397">
        <ele>645.38464</ele>
        <time>2020-10-18T08:57:20Z</time>
      </trkpt>
      <trkpt lat="46.36433" lon="6.53975">
        <ele>645.7691</ele>
        <time>2020-10-18T08:57:25Z</time>
      </trkpt>
      <trkpt lat="46.36422" lon="6.53977">
        <ele>646.2582</ele>
        <time>2020-10-18T08:57:30Z</time>
      </trkpt>
      <trkpt lat="46.36412" lon="6.53981">
        <ele>646.4524</ele>
        <time>2020-10-18T08:57:35Z</time>
      </trkpt>
      <trkpt lat="46.36402" lon="6.53982">
        <ele>646.60535</ele>
        <time>2020-10-18T08:57:40Z</time>
      </trkpt>
      <trkpt lat="46.36391" lon="6.53989">
        <ele>646.95764</ele>
        <time>2020-10-18T08:57:45Z</time>
      </trkpt>
      <trkpt lat="46.36369" lon="6.54002">
        <ele>647.0864</ele>
        <time>2020-10-18T08:57:55Z</time>
      </trkpt>
      <trkpt lat="46.3636" lon="6.54009">
        <ele>647.2978</ele>
        <time>2020-10-18T08:58:00Z</time>
      </trkpt>
      <trkpt lat="46.3635" lon="6.54015">
        <ele>647.0613</ele>
        <time>2020-10-18T08:58:05Z</time>
      </trkpt>
      <trkpt lat="46.36338" lon="6.54021">
        <ele>647.17</ele>
        <time>2020-10-18T08:58:10Z</time>
      </trkpt>
      <trkpt lat="46.36328" lon="6.54027">
        <ele>646.9878</ele>
        <time>2020-10-18T08:58:15Z</time>
      </trkpt>
      <trkpt lat="46.36318" lon="6.54037">
        <ele>647.16394</ele>
        <time>2020-10-18T08:58:20Z</time>
      </trkpt>
      <trkpt lat="46.36308" lon="6.54044">
        <ele>647.173</ele>
        <time>2020-10-18T08:58:25Z</time>
      </trkpt>
      <trkpt lat="46.36299" lon="6.54051">
        <ele>647.1287</ele>
        <time>2020-10-18T08:58:30Z</time>
      </trkpt>
      <trkpt lat="46.36288" lon="6.54059">
        <ele>647.1035</ele>
        <time>2020-10-18T08:58:35Z</time>
      </trkpt>
      <trkpt lat="46.36277" lon="6.54066">
        <ele>647.37024</ele>
        <time>2020-10-18T08:58:40Z</time>
      </trkpt>
      <trkpt lat="46.36266" lon="6.54073">
        <ele>647.24744</ele>
        <time>2020-10-18T08:58:45Z</time>
      </trkpt>
      <trkpt lat="46.36256" lon="6.5408">
        <ele>647.3954</ele>
        <time>2020-10-18T08:58:50Z</time>
      </trkpt>
      <trkpt lat="46.36245" lon="6.54086">
        <ele>647.5585</ele>
        <time>2020-10-18T08:58:55Z</time>
      </trkpt>
      <trkpt lat="46.36234" lon="6.54093">
        <ele>647.7235</ele>
        <time>2020-10-18T08:59:00Z</time>
      </trkpt>
      <trkpt lat="46.36225" lon="6.54101">
        <ele>647.7617</ele>
        <time>2020-10-18T08:59:05Z</time>
      </trkpt>
      <trkpt lat="46.36218" lon="6.54111">
        <ele>647.71747</ele>
        <time>2020-10-18T08:59:10Z</time>
      </trkpt>
      <trkpt lat="46.36199" lon="6.54127">
        <ele>647.98315</ele>
        <time>2020-10-18T08:59:20Z</time>
      </trkpt>
      <trkpt lat="46.36189" lon="6.54138">
        <ele>647.9177</ele>
        <time>2020-10-18T08:59:25Z</time>
      </trkpt>
      <trkpt lat="46.36177" lon="6.54144">
        <ele>647.8493</ele>
        <time>2020-10-18T08:59:30Z</time>
      </trkpt>
      <trkpt lat="46.36167" lon="6.54147">
        <ele>648.04755</ele>
        <time>2020-10-18T08:59:35Z</time>
      </trkpt>
      <trkpt lat="46.36155" lon="6.54149">
        <ele>648.0808</ele>
        <time>2020-10-18T08:59:40Z</time>
      </trkpt>
      <trkpt lat="46.36143" lon="6.5415">
        <ele>648.1573</ele>
        <time>2020-10-18T08:59:45Z</time>
      </trkpt>
      <trkpt lat="46.36132" lon="6.54152">
        <ele>648.21564</ele>
        <time>2020-10-18T08:59:50Z</time>
      </trkpt>
      <trkpt lat="46.36122" lon="6.54153">
        <ele>648.18646</ele>
        <time>2020-10-18T08:59:55Z</time>
      </trkpt>
      <trkpt lat="46.36113" lon="6.54156">
        <ele>648.4008</ele>
        <time>2020-10-18T09:00:00Z</time>
      </trkpt>
      <trkpt lat="46.36112" lon="6.54166">
        <ele>648.2237</ele>
        <time>2020-10-18T09:00:05Z</time>
      </trkpt>
      <trkpt lat="46.36118" lon="6.5418">
        <ele>648.1995</ele>
        <time>2020-10-18T09:00:10Z</time>
      </trkpt>
      <trkpt lat="46.36124" lon="6.54198">
        <ele>648.6404</ele>
        <time>2020-10-18T09:00:15Z</time>
      </trkpt>
      <trkpt lat="46.36129" lon="6.54212">
        <ele>649.5513</ele>
        <time>2020-10-18T09:00:20Z</time>
      </trkpt>
      <trkpt lat="46.36131" lon="6.54224">
        <ele>650.60913</ele>
        <time>2020-10-18T09:00:25Z</time>
      </trkpt>
      <trkpt lat="46.36132" lon="6.54231">
        <ele>651.82916</ele>
        <time>2020-10-18T09:00:30Z</time>
      </trkpt>
      <trkpt lat="46.36135" lon="6.54238">
        <ele>652.6214</ele>
        <time>2020-10-18T09:00:35Z</time>
      </trkpt>
      <trkpt lat="46.3614" lon="6.54249">
        <ele>653.5848</ele>
        <time>2020-10-18T09:00:40Z</time>
      </trkpt>
      <trkpt lat="46.36136" lon="6.54255">
        <ele>653.68646</ele>
        <time>2020-10-18T09:00:45Z</time>
      </trkpt>
      <trkpt lat="46.36133" lon="6.54263">
        <ele>654.01666</ele>
        <time>2020-10-18T09:00:50Z</time>
      </trkpt>
      <trkpt lat="46.3613" lon="6.54274">
        <ele>654.3358</ele>
        <time>2020-10-18T09:01:00Z</time>
      </trkpt>
      <trkpt lat="46.36126" lon="6.54283">
        <ele>654.5251</ele>
        <time>2020-10-18T09:01:05Z</time>
      </trkpt>
      <trkpt lat="46.3612" lon="6.54291">
        <ele>654.96906</ele>
        <time>2020-10-18T09:01:10Z</time>
      </trkpt>
      <trkpt lat="46.36115" lon="6.54299">
        <ele>655.35364</ele>
        <time>2020-10-18T09:01:15Z</time>
      </trkpt>
      <trkpt lat="46.36108" lon="6.5431">
        <ele>655.8248</ele>
        <time>2020-10-18T09:01:25Z</time>
      </trkpt>
      <trkpt lat="46.36099" lon="6.54324">
        <ele>656.4571</ele>
        <time>2020-10-18T09:01:34Z</time>
      </trkpt>
      <trkpt lat="46.36092" lon="6.54333">
        <ele>656.7863</ele>
        <time>2020-10-18T09:01:40Z</time>
      </trkpt>
      <trkpt lat="46.36087" lon="6.54338">
        <ele>657.0733</ele>
        <time>2020-10-18T09:01:45Z</time>
      </trkpt>
      <trkpt lat="46.36079" lon="6.54349">
        <ele>657.8043</ele>
        <time>2020-10-18T09:01:55Z</time>
      </trkpt>
      <trkpt lat="46.36073" lon="6.54357">
        <ele>658.45776</ele>
        <time>2020-10-18T09:02:00Z</time>
      </trkpt>
      <trkpt lat="46.36068" lon="6.54365">
        <ele>658.88873</ele>
        <time>2020-10-18T09:02:05Z</time>
      </trkpt>
      <trkpt lat="46.36056" lon="6.54384">
        <ele>659.69836</ele>
        <time>2020-10-18T09:02:15Z</time>
      </trkpt>
      <trkpt lat="46.36049" lon="6.54395">
        <ele>660.42847</ele>
        <time>2020-10-18T09:02:20Z</time>
      </trkpt>
      <trkpt lat="46.36041" lon="6.54407">
        <ele>660.942</ele>
        <time>2020-10-18T09:02:25Z</time>
      </trkpt>
      <trkpt lat="46.36033" lon="6.54419">
        <ele>661.6389</ele>
        <time>2020-10-18T09:02:30Z</time>
      </trkpt>
      <trkpt lat="46.36025" lon="6.54432">
        <ele>662.5141</ele>
        <time>2020-10-18T09:02:35Z</time>
      </trkpt>
      <trkpt lat="46.36018" lon="6.54441">
        <ele>663.40436</ele>
        <time>2020-10-18T09:02:40Z</time>
      </trkpt>
      <trkpt lat="46.36009" lon="6.5445">
        <ele>664.13055</ele>
        <time>2020-10-18T09:02:45Z</time>
      </trkpt>
      <trkpt lat="46.36" lon="6.54459">
        <ele>664.7923</ele>
        <time>2020-10-18T09:02:50Z</time>
      </trkpt>
      <trkpt lat="46.35989" lon="6.54469">
        <ele>664.9907</ele>
        <time>2020-10-18T09:02:55Z</time>
      </trkpt>
      <trkpt lat="46.35981" lon="6.54478">
        <ele>665.3523</ele>
        <time>2020-10-18T09:03:00Z</time>
      </trkpt>
      <trkpt lat="46.35972" lon="6.54486">
        <ele>665.9416</ele>
        <time>2020-10-18T09:03:05Z</time>
      </trkpt>
      <trkpt lat="46.35962" lon="6.54494">
        <ele>666.5711</ele>
        <time>2020-10-18T09:03:10Z</time>
      </trkpt>
      <trkpt lat="46.35954" lon="6.54501">
        <ele>667.105</ele>
        <time>2020-10-18T09:03:15Z</time>
      </trkpt>
      <trkpt lat="46.35943" lon="6.54508">
        <ele>667.5925</ele>
        <time>2020-10-18T09:03:20Z</time>
      </trkpt>
      <trkpt lat="46.35933" lon="6.54511">
        <ele>668.0086</ele>
        <time>2020-10-18T09:03:25Z</time>
      </trkpt>
      <trkpt lat="46.35924" lon="6.54515">
        <ele>668.3571</ele>
        <time>2020-10-18T09:03:30Z</time>
      </trkpt>
      <trkpt lat="46.35914" lon="6.54513">
        <ele>668.2695</ele>
        <time>2020-10-18T09:03:35Z</time>
      </trkpt>
      <trkpt lat="46.35905" lon="6.54506">
        <ele>667.78094</ele>
        <time>2020-10-18T09:03:40Z</time>
      </trkpt>
      <trkpt lat="46.35892" lon="6.54484">
        <ele>666.96497</ele>
        <time>2020-10-18T09:03:49Z</time>
      </trkpt>
      <trkpt lat="46.3588" lon="6.54473">
        <ele>666.6205</ele>
        <time>2020-10-18T09:03:55Z</time>
      </trkpt>
      <trkpt lat="46.3587" lon="6.54476">
        <ele>666.9851</ele>
        <time>2020-10-18T09:04:00Z</time>
      </trkpt>
      <trkpt lat="46.35862" lon="6.54484">
        <ele>667.34375</ele>
        <time>2020-10-18T09:04:05Z</time>
      </trkpt>
      <trkpt lat="46.35852" lon="6.54493">
        <ele>667.6913</ele>
        <time>2020-10-18T09:04:10Z</time>
      </trkpt>
      <trkpt lat="46.35843" lon="6.545">
        <ele>668.201</ele>
        <time>2020-10-18T09:04:15Z</time>
      </trkpt>
      <trkpt lat="46.35832" lon="6.54504">
        <ele>668.7067</ele>
        <time>2020-10-18T09:04:20Z</time>
      </trkpt>
      <trkpt lat="46.35822" lon="6.54508">
        <ele>669.3172</ele>
        <time>2020-10-18T09:04:25Z</time>
      </trkpt>
      <trkpt lat="46.35811" lon="6.54513">
        <ele>669.8481</ele>
        <time>2020-10-18T09:04:30Z</time>
      </trkpt>
      <trkpt lat="46.35801" lon="6.54517">
        <ele>670.0315</ele>
        <time>2020-10-18T09:04:35Z</time>
      </trkpt>
      <trkpt lat="46.3579" lon="6.54524">
        <ele>670.2088</ele>
        <time>2020-10-18T09:04:40Z</time>
      </trkpt>
      <trkpt lat="46.35779" lon="6.54525">
        <ele>670.32965</ele>
        <time>2020-10-18T09:04:45Z</time>
      </trkpt>
      <trkpt lat="46.35767" lon="6.54525">
        <ele>670.73773</ele>
        <time>2020-10-18T09:04:50Z</time>
      </trkpt>
      <trkpt lat="46.35755" lon="6.5452">
        <ele>670.9211</ele>
        <time>2020-10-18T09:04:55Z</time>
      </trkpt>
      <trkpt lat="46.35743" lon="6.54519">
        <ele>670.783</ele>
        <time>2020-10-18T09:05:00Z</time>
      </trkpt>
      <trkpt lat="46.35732" lon="6.54518">
        <ele>670.3398</ele>
        <time>2020-10-18T09:05:05Z</time>
      </trkpt>
      <trkpt lat="46.35724" lon="6.54521">
        <ele>670.29645</ele>
        <time>2020-10-18T09:05:10Z</time>
      </trkpt>
      <trkpt lat="46.35714" lon="6.54525">
        <ele>670.379</ele>
        <time>2020-10-18T09:05:15Z</time>
      </trkpt>
      <trkpt lat="46.35705" lon="6.54531">
        <ele>671.25256</ele>
        <time>2020-10-18T09:05:20Z</time>
      </trkpt>
      <trkpt lat="46.35696" lon="6.54538">
        <ele>671.7976</ele>
        <time>2020-10-18T09:05:25Z</time>
      </trkpt>
      <trkpt lat="46.35688" lon="6.54554">
        <ele>672.25</ele>
        <time>2020-10-18T09:05:30Z</time>
      </trkpt>
      <trkpt lat="46.35682" lon="6.54568">
        <ele>673.1246</ele>
        <time>2020-10-18T09:05:35Z</time>
      </trkpt>
      <trkpt lat="46.3568" lon="6.54578">
        <ele>673.4843</ele>
        <time>2020-10-18T09:05:40Z</time>
      </trkpt>
      <trkpt lat="46.357" lon="6.54592">
        <ele>674.36194</ele>
        <time>2020-10-18T09:05:50Z</time>
      </trkpt>
      <trkpt lat="46.35707" lon="6.54599">
        <ele>674.7811</ele>
        <time>2020-10-18T09:05:55Z</time>
      </trkpt>
      <trkpt lat="46.35725" lon="6.54617">
        <ele>675.24365</ele>
        <time>2020-10-18T09:06:05Z</time>
      </trkpt>
      <trkpt lat="46.35734" lon="6.54628">
        <ele>675.3374</ele>
        <time>2020-10-18T09:06:10Z</time>
      </trkpt>
      <trkpt lat="46.35742" lon="6.54638">
        <ele>675.51776</ele>
        <time>2020-10-18T09:06:15Z</time>
      </trkpt>
      <trkpt lat="46.35751" lon="6.54652">
        <ele>675.7536</ele>
        <time>2020-10-18T09:06:20Z</time>
      </trkpt>
      <trkpt lat="46.35759" lon="6.54663">
        <ele>675.95917</ele>
        <time>2020-10-18T09:06:25Z</time>
      </trkpt>
      <trkpt lat="46.35765" lon="6.54675">
        <ele>676.5003</ele>
        <time>2020-10-18T09:06:30Z</time>
      </trkpt>
      <trkpt lat="46.35772" lon="6.54687">
        <ele>676.8863</ele>
        <time>2020-10-18T09:06:35Z</time>
      </trkpt>
      <trkpt lat="46.35781" lon="6.54695">
        <ele>677.1352</ele>
        <time>2020-10-18T09:06:40Z</time>
      </trkpt>
      <trkpt lat="46.35791" lon="6.547">
        <ele>677.3317</ele>
        <time>2020-10-18T09:06:45Z</time>
      </trkpt>
      <trkpt lat="46.358" lon="6.54706">
        <ele>677.4255</ele>
        <time>2020-10-18T09:06:50Z</time>
      </trkpt>
      <trkpt lat="46.35811" lon="6.54712">
        <ele>677.92126</ele>
        <time>2020-10-18T09:06:55Z</time>
      </trkpt>
      <trkpt lat="46.35822" lon="6.5472">
        <ele>677.9132</ele>
        <time>2020-10-18T09:07:00Z</time>
      </trkpt>
      <trkpt lat="46.35831" lon="6.54728">
        <ele>678.14</ele>
        <time>2020-10-18T09:07:05Z</time>
      </trkpt>
      <trkpt lat="46.35841" lon="6.54735">
        <ele>678.27203</ele>
        <time>2020-10-18T09:07:10Z</time>
      </trkpt>
      <trkpt lat="46.3585" lon="6.54744">
        <ele>678.9654</ele>
        <time>2020-10-18T09:07:15Z</time>
      </trkpt>
      <trkpt lat="46.3586" lon="6.54753">
        <ele>678.98157</ele>
        <time>2020-10-18T09:07:20Z</time>
      </trkpt>
      <trkpt lat="46.35871" lon="6.54759">
        <ele>679.35547</ele>
        <time>2020-10-18T09:07:25Z</time>
      </trkpt>
      <trkpt lat="46.35882" lon="6.54764">
        <ele>679.6195</ele>
        <time>2020-10-18T09:07:30Z</time>
      </trkpt>
      <trkpt lat="46.35892" lon="6.5477">
        <ele>680.01764</ele>
        <time>2020-10-18T09:07:35Z</time>
      </trkpt>
      <trkpt lat="46.35902" lon="6.54773">
        <ele>680.3825</ele>
        <time>2020-10-18T09:07:40Z</time>
      </trkpt>
      <trkpt lat="46.35912" lon="6.54773">
        <ele>680.7141</ele>
        <time>2020-10-18T09:07:45Z</time>
      </trkpt>
      <trkpt lat="46.35922" lon="6.54765">
        <ele>680.8573</ele>
        <time>2020-10-18T09:07:50Z</time>
      </trkpt>
      <trkpt lat="46.35933" lon="6.54758">
        <ele>680.8089</ele>
        <time>2020-10-18T09:07:55Z</time>
      </trkpt>
      <trkpt lat="46.35943" lon="6.54749">
        <ele>680.2434</ele>
        <time>2020-10-18T09:08:00Z</time>
      </trkpt>
      <trkpt lat="46.35954" lon="6.54742">
        <ele>679.7798</ele>
        <time>2020-10-18T09:08:05Z</time>
      </trkpt>
      <trkpt lat="46.35965" lon="6.54736">
        <ele>679.2547</ele>
        <time>2020-10-18T09:08:10Z</time>
      </trkpt>
      <trkpt lat="46.35976" lon="6.54729">
        <ele>678.86566</ele>
        <time>2020-10-18T09:08:15Z</time>
      </trkpt>
      <trkpt lat="46.35986" lon="6.54717">
        <ele>678.02106</ele>
        <time>2020-10-18T09:08:20Z</time>
      </trkpt>
      <trkpt lat="46.35995" lon="6.54704">
        <ele>677.16345</ele>
        <time>2020-10-18T09:08:25Z</time>
      </trkpt>
      <trkpt lat="46.36006" lon="6.54692">
        <ele>676.58295</ele>
        <time>2020-10-18T09:08:30Z</time>
      </trkpt>
      <trkpt lat="46.36016" lon="6.54686">
        <ele>676.63336</ele>
        <time>2020-10-18T09:08:35Z</time>
      </trkpt>
      <trkpt lat="46.36028" lon="6.54682">
        <ele>676.072</ele>
        <time>2020-10-18T09:08:40Z</time>
      </trkpt>
      <trkpt lat="46.3605" lon="6.54678">
        <ele>675.5359</ele>
        <time>2020-10-18T09:08:49Z</time>
      </trkpt>
      <trkpt lat="46.36062" lon="6.54676">
        <ele>674.80634</ele>
        <time>2020-10-18T09:08:54Z</time>
      </trkpt>
      <trkpt lat="46.36078" lon="6.54671">
        <ele>673.6455</ele>
        <time>2020-10-18T09:09:00Z</time>
      </trkpt>
      <trkpt lat="46.36087" lon="6.54659">
        <ele>672.3427</ele>
        <time>2020-10-18T09:09:05Z</time>
      </trkpt>
      <trkpt lat="46.36095" lon="6.54641">
        <ele>671.6112</ele>
        <time>2020-10-18T09:09:10Z</time>
      </trkpt>
      <trkpt lat="46.36105" lon="6.54612">
        <ele>671.9467</ele>
        <time>2020-10-18T09:09:20Z</time>
      </trkpt>
      <trkpt lat="46.36123" lon="6.54605">
        <ele>670.21985</ele>
        <time>2020-10-18T09:09:29Z</time>
      </trkpt>
      <trkpt lat="46.36133" lon="6.54607">
        <ele>669.558</ele>
        <time>2020-10-18T09:09:34Z</time>
      </trkpt>
      <trkpt lat="46.36143" lon="6.54609">
        <ele>669.158</ele>
        <time>2020-10-18T09:09:39Z</time>
      </trkpt>
      <trkpt lat="46.36154" lon="6.54611">
        <ele>669.35547</ele>
        <time>2020-10-18T09:09:45Z</time>
      </trkpt>
      <trkpt lat="46.36161" lon="6.54615">
        <ele>669.3998</ele>
        <time>2020-10-18T09:09:50Z</time>
      </trkpt>
      <trkpt lat="46.36169" lon="6.54622">
        <ele>669.3897</ele>
        <time>2020-10-18T09:09:55Z</time>
      </trkpt>
      <trkpt lat="46.36178" lon="6.54631">
        <ele>669.99115</ele>
        <time>2020-10-18T09:10:00Z</time>
      </trkpt>
      <trkpt lat="46.36186" lon="6.54639">
        <ele>670.49695</ele>
        <time>2020-10-18T09:10:05Z</time>
      </trkpt>
      <trkpt lat="46.36196" lon="6.54646">
        <ele>671.11554</ele>
        <time>2020-10-18T09:10:10Z</time>
      </trkpt>
      <trkpt lat="46.36208" lon="6.5466">
        <ele>671.54474</ele>
        <time>2020-10-18T09:10:15Z</time>
      </trkpt>
      <trkpt lat="46.36216" lon="6.5467">
        <ele>671.6505</ele>
        <time>2020-10-18T09:10:20Z</time>
      </trkpt>
      <trkpt lat="46.36228" lon="6.54674">
        <ele>672.0515</ele>
        <time>2020-10-18T09:10:25Z</time>
      </trkpt>
      <trkpt lat="46.3624" lon="6.54678">
        <ele>672.3991</ele>
        <time>2020-10-18T09:10:30Z</time>
      </trkpt>
      <trkpt lat="46.36253" lon="6.54679">
        <ele>672.5714</ele>
        <time>2020-10-18T09:10:35Z</time>
      </trkpt>
      <trkpt lat="46.36267" lon="6.54677">
        <ele>672.69135</ele>
        <time>2020-10-18T09:10:40Z</time>
      </trkpt>
      <trkpt lat="46.36279" lon="6.54675">
        <ele>672.58954</ele>
        <time>2020-10-18T09:10:45Z</time>
      </trkpt>
      <trkpt lat="46.36289" lon="6.54676">
        <ele>672.4747</ele>
        <time>2020-10-18T09:10:50Z</time>
      </trkpt>
      <trkpt lat="46.36298" lon="6.54677">
        <ele>671.3573</ele>
        <time>2020-10-18T09:10:55Z</time>
      </trkpt>
      <trkpt lat="46.36307" lon="6.54674">
        <ele>671.177</ele>
        <time>2020-10-18T09:11:00Z</time>
      </trkpt>
      <trkpt lat="46.36319" lon="6.54664">
        <ele>670.8848</ele>
        <time>2020-10-18T09:11:05Z</time>
      </trkpt>
      <trkpt lat="46.36328" lon="6.54657">
        <ele>670.7528</ele>
        <time>2020-10-18T09:11:10Z</time>
      </trkpt>
      <trkpt lat="46.36338" lon="6.54651">
        <ele>670.53015</ele>
        <time>2020-10-18T09:11:15Z</time>
      </trkpt>
      <trkpt lat="46.36348" lon="6.54646">
        <ele>670.0204</ele>
        <time>2020-10-18T09:11:20Z</time>
      </trkpt>
      <trkpt lat="46.3636" lon="6.54639">
        <ele>669.32526</ele>
        <time>2020-10-18T09:11:25Z</time>
      </trkpt>
      <trkpt lat="46.36367" lon="6.54636">
        <ele>667.9582</ele>
        <time>2020-10-18T09:11:30Z</time>
      </trkpt>
      <trkpt lat="46.36376" lon="6.54628">
        <ele>667.7144</ele>
        <time>2020-10-18T09:11:35Z</time>
      </trkpt>
      <trkpt lat="46.36386" lon="6.54624">
        <ele>667.48676</ele>
        <time>2020-10-18T09:11:40Z</time>
      </trkpt>
      <trkpt lat="46.36393" lon="6.54626">
        <ele>667.4737</ele>
        <time>2020-10-18T09:11:45Z</time>
      </trkpt>
      <trkpt lat="46.364" lon="6.54636">
        <ele>667.0063</ele>
        <time>2020-10-18T09:11:50Z</time>
      </trkpt>
      <trkpt lat="46.36407" lon="6.54648">
        <ele>666.968</ele>
        <time>2020-10-18T09:11:55Z</time>
      </trkpt>
      <trkpt lat="46.36412" lon="6.54659">
        <ele>665.7824</ele>
        <time>2020-10-18T09:12:00Z</time>
      </trkpt>
      <trkpt lat="46.36418" lon="6.54671">
        <ele>666.278</ele>
        <time>2020-10-18T09:12:05Z</time>
      </trkpt>
      <trkpt lat="46.36423" lon="6.5468">
        <ele>665.80457</ele>
        <time>2020-10-18T09:12:10Z</time>
      </trkpt>
      <trkpt lat="46.36436" lon="6.547">
        <ele>664.26654</ele>
        <time>2020-10-18T09:12:19Z</time>
      </trkpt>
      <trkpt lat="46.36443" lon="6.54693">
        <ele>663.3983</ele>
        <time>2020-10-18T09:12:24Z</time>
      </trkpt>
      <trkpt lat="46.36456" lon="6.5469">
        <ele>662.77997</ele>
        <time>2020-10-18T09:12:29Z</time>
      </trkpt>
      <trkpt lat="46.36465" lon="6.5469">
        <ele>662.6309</ele>
        <time>2020-10-18T09:12:34Z</time>
      </trkpt>
      <trkpt lat="46.36477" lon="6.54683">
        <ele>662.10114</ele>
        <time>2020-10-18T09:12:40Z</time>
      </trkpt>
      <trkpt lat="46.36483" lon="6.5468">
        <ele>662.7558</ele>
        <time>2020-10-18T09:12:45Z</time>
      </trkpt>
      <trkpt lat="46.3649" lon="6.54672">
        <ele>662.7679</ele>
        <time>2020-10-18T09:12:50Z</time>
      </trkpt>
      <trkpt lat="46.36497" lon="6.5466">
        <ele>662.1304</ele>
        <time>2020-10-18T09:12:55Z</time>
      </trkpt>
      <trkpt lat="46.36504" lon="6.54651">
        <ele>661.2945</ele>
        <time>2020-10-18T09:13:00Z</time>
      </trkpt>
      <trkpt lat="46.36513" lon="6.54646">
        <ele>660.72046</ele>
        <time>2020-10-18T09:13:05Z</time>
      </trkpt>
      <trkpt lat="46.36523" lon="6.54644">
        <ele>660.226</ele>
        <time>2020-10-18T09:13:10Z</time>
      </trkpt>
      <trkpt lat="46.36535" lon="6.54643">
        <ele>660.55835</ele>
        <time>2020-10-18T09:13:15Z</time>
      </trkpt>
      <trkpt lat="46.36547" lon="6.54639">
        <ele>661.02057</ele>
        <time>2020-10-18T09:13:20Z</time>
      </trkpt>
      <trkpt lat="46.36557" lon="6.54638">
        <ele>661.94104</ele>
        <time>2020-10-18T09:13:25Z</time>
      </trkpt>
      <trkpt lat="46.36567" lon="6.54644">
        <ele>662.1062</ele>
        <time>2020-10-18T09:13:30Z</time>
      </trkpt>
      <trkpt lat="46.36575" lon="6.54652">
        <ele>662.1999</ele>
        <time>2020-10-18T09:13:35Z</time>
      </trkpt>
      <trkpt lat="46.36584" lon="6.54659">
        <ele>662.85345</ele>
        <time>2020-10-18T09:13:40Z</time>
      </trkpt>
      <trkpt lat="46.36594" lon="6.54668">
        <ele>663.3309</ele>
        <time>2020-10-18T09:13:45Z</time>
      </trkpt>
      <trkpt lat="46.36597" lon="6.54673">
        <ele>663.5786</ele>
        <time>2020-10-18T09:13:50Z</time>
      </trkpt>
      <trkpt lat="46.36604" lon="6.54682">
        <ele>664.1155</ele>
        <time>2020-10-18T09:13:55Z</time>
      </trkpt>
      <trkpt lat="46.36612" lon="6.54684">
        <ele>664.66437</ele>
        <time>2020-10-18T09:14:00Z</time>
      </trkpt>
      <trkpt lat="46.36622" lon="6.54687">
        <ele>665.0804</ele>
        <time>2020-10-18T09:14:05Z</time>
      </trkpt>
      <trkpt lat="46.36644" lon="6.54695">
        <ele>665.09045</ele>
        <time>2020-10-18T09:14:14Z</time>
      </trkpt>
      <trkpt lat="46.36654" lon="6.5469">
        <ele>664.0399</ele>
        <time>2020-10-18T09:14:19Z</time>
      </trkpt>
      <trkpt lat="46.36662" lon="6.54682">
        <ele>662.9461</ele>
        <time>2020-10-18T09:14:24Z</time>
      </trkpt>
      <trkpt lat="46.36672" lon="6.54666">
        <ele>662.38416</ele>
        <time>2020-10-18T09:14:29Z</time>
      </trkpt>
      <trkpt lat="46.36683" lon="6.54653">
        <ele>661.8383</ele>
        <time>2020-10-18T09:14:34Z</time>
      </trkpt>
      <trkpt lat="46.36694" lon="6.54643">
        <ele>661.37</ele>
        <time>2020-10-18T09:14:40Z</time>
      </trkpt>
      <trkpt lat="46.36704" lon="6.54634">
        <ele>660.35394</ele>
        <time>2020-10-18T09:14:45Z</time>
      </trkpt>
      <trkpt lat="46.36717" lon="6.54622">
        <ele>659.2462</ele>
        <time>2020-10-18T09:14:50Z</time>
      </trkpt>
      <trkpt lat="46.36727" lon="6.54616">
        <ele>658.6763</ele>
        <time>2020-10-18T09:14:55Z</time>
      </trkpt>
      <trkpt lat="46.36736" lon="6.54608">
        <ele>658.1769</ele>
        <time>2020-10-18T09:15:00Z</time>
      </trkpt>
      <trkpt lat="46.36745" lon="6.54596">
        <ele>656.90314</ele>
        <time>2020-10-18T09:15:05Z</time>
      </trkpt>
      <trkpt lat="46.36755" lon="6.54581">
        <ele>655.9225</ele>
        <time>2020-10-18T09:15:10Z</time>
      </trkpt>
      <trkpt lat="46.36763" lon="6.54569">
        <ele>655.16034</ele>
        <time>2020-10-18T09:15:15Z</time>
      </trkpt>
      <trkpt lat="46.36773" lon="6.54559">
        <ele>654.4727</ele>
        <time>2020-10-18T09:15:20Z</time>
      </trkpt>
      <trkpt lat="46.3678" lon="6.54551">
        <ele>654.10626</ele>
        <time>2020-10-18T09:15:25Z</time>
      </trkpt>
      <trkpt lat="46.36793" lon="6.54546">
        <ele>653.2637</ele>
        <time>2020-10-18T09:15:30Z</time>
      </trkpt>
      <trkpt lat="46.36805" lon="6.5454">
        <ele>652.9163</ele>
        <time>2020-10-18T09:15:35Z</time>
      </trkpt>
      <trkpt lat="46.36823" lon="6.54528">
        <ele>652.4915</ele>
        <time>2020-10-18T09:15:45Z</time>
      </trkpt>
      <trkpt lat="46.36835" lon="6.5452">
        <ele>652.2278</ele>
        <time>2020-10-18T09:15:50Z</time>
      </trkpt>
      <trkpt lat="46.36847" lon="6.54514">
        <ele>652.0476</ele>
        <time>2020-10-18T09:15:55Z</time>
      </trkpt>
      <trkpt lat="46.3686" lon="6.54511">
        <ele>651.79395</ele>
        <time>2020-10-18T09:16:00Z</time>
      </trkpt>
      <trkpt lat="46.36871" lon="6.54512">
        <ele>651.196</ele>
        <time>2020-10-18T09:16:05Z</time>
      </trkpt>
      <trkpt lat="46.36882" lon="6.54513">
        <ele>651.0651</ele>
        <time>2020-10-18T09:16:10Z</time>
      </trkpt>
      <trkpt lat="46.36893" lon="6.54512">
        <ele>651.0933</ele>
        <time>2020-10-18T09:16:15Z</time>
      </trkpt>
      <trkpt lat="46.36906" lon="6.54503">
        <ele>650.6625</ele>
        <time>2020-10-18T09:16:20Z</time>
      </trkpt>
      <trkpt lat="46.36919" lon="6.54496">
        <ele>650.71185</ele>
        <time>2020-10-18T09:16:25Z</time>
      </trkpt>
      <trkpt lat="46.3693" lon="6.54495">
        <ele>650.1904</ele>
        <time>2020-10-18T09:16:30Z</time>
      </trkpt>
      <trkpt lat="46.36941" lon="6.54495">
        <ele>650.3354</ele>
        <time>2020-10-18T09:16:35Z</time>
      </trkpt>
      <trkpt lat="46.36952" lon="6.54501">
        <ele>651.2383</ele>
        <time>2020-10-18T09:16:40Z</time>
      </trkpt>
      <trkpt lat="46.36963" lon="6.54511">
        <ele>651.2886</ele>
        <time>2020-10-18T09:16:45Z</time>
      </trkpt>
      <trkpt lat="46.36974" lon="6.54517">
        <ele>651.2453</ele>
        <time>2020-10-18T09:16:50Z</time>
      </trkpt>
      <trkpt lat="46.36984" lon="6.54521">
        <ele>651.4567</ele>
        <time>2020-10-18T09:16:55Z</time>
      </trkpt>
      <trkpt lat="46.36996" lon="6.54518">
        <ele>651.2443</ele>
        <time>2020-10-18T09:17:00Z</time>
      </trkpt>
      <trkpt lat="46.37008" lon="6.54514">
        <ele>651.49493</ele>
        <time>2020-10-18T09:17:05Z</time>
      </trkpt>
      <trkpt lat="46.37022" lon="6.54509">
        <ele>651.6651</ele>
        <time>2020-10-18T09:17:10Z</time>
      </trkpt>
      <trkpt lat="46.37035" lon="6.54507">
        <ele>651.9963</ele>
        <time>2020-10-18T09:17:15Z</time>
      </trkpt>
      <trkpt lat="46.37047" lon="6.54503">
        <ele>652.12006</ele>
        <time>2020-10-18T09:17:20Z</time>
      </trkpt>
      <trkpt lat="46.37056" lon="6.545">
        <ele>652.3033</ele>
        <time>2020-10-18T09:17:25Z</time>
      </trkpt>
      <trkpt lat="46.37064" lon="6.54501">
        <ele>652.66364</ele>
        <time>2020-10-18T09:17:30Z</time>
      </trkpt>
      <trkpt lat="46.37073" lon="6.545">
        <ele>652.6103</ele>
        <time>2020-10-18T09:17:35Z</time>
      </trkpt>
      <trkpt lat="46.37084" lon="6.54503">
        <ele>652.7009</ele>
        <time>2020-10-18T09:17:40Z</time>
      </trkpt>
      <trkpt lat="46.37098" lon="6.54511">
        <ele>652.79755</ele>
        <time>2020-10-18T09:17:45Z</time>
      </trkpt>
      <trkpt lat="46.37111" lon="6.54516">
        <ele>652.9687</ele>
        <time>2020-10-18T09:17:50Z</time>
      </trkpt>
      <trkpt lat="46.37127" lon="6.54513">
        <ele>652.8881</ele>
        <time>2020-10-18T09:17:55Z</time>
      </trkpt>
      <trkpt lat="46.37135" lon="6.54504">
        <ele>652.44116</ele>
        <time>2020-10-18T09:18:00Z</time>
      </trkpt>
      <trkpt lat="46.37145" lon="6.5449">
        <ele>651.91974</ele>
        <time>2020-10-18T09:18:05Z</time>
      </trkpt>
      <trkpt lat="46.37153" lon="6.54476">
        <ele>651.7174</ele>
        <time>2020-10-18T09:18:10Z</time>
      </trkpt>
      <trkpt lat="46.37162" lon="6.54468">
        <ele>651.4708</ele>
        <time>2020-10-18T09:18:15Z</time>
      </trkpt>
      <trkpt lat="46.37172" lon="6.54463">
        <ele>651.356</ele>
        <time>2020-10-18T09:18:20Z</time>
      </trkpt>
      <trkpt lat="46.37182" lon="6.54458">
        <ele>651.7909</ele>
        <time>2020-10-18T09:18:25Z</time>
      </trkpt>
      <trkpt lat="46.37191" lon="6.54452">
        <ele>651.9016</ele>
        <time>2020-10-18T09:18:30Z</time>
      </trkpt>
      <trkpt lat="46.37203" lon="6.54442">
        <ele>652.3103</ele>
        <time>2020-10-18T09:18:35Z</time>
      </trkpt>
      <trkpt lat="46.37212" lon="6.54426">
        <ele>652.3335</ele>
        <time>2020-10-18T09:18:40Z</time>
      </trkpt>
      <trkpt lat="46.37222" lon="6.54408">
        <ele>652.4724</ele>
        <time>2020-10-18T09:18:45Z</time>
      </trkpt>
      <trkpt lat="46.3723" lon="6.54392">
        <ele>652.3949</ele>
        <time>2020-10-18T09:18:50Z</time>
      </trkpt>
      <trkpt lat="46.37237" lon="6.54377">
        <ele>652.64856</ele>
        <time>2020-10-18T09:18:55Z</time>
      </trkpt>
      <trkpt lat="46.37245" lon="6.54362">
        <ele>652.73615</ele>
        <time>2020-10-18T09:19:00Z</time>
      </trkpt>
      <trkpt lat="46.37252" lon="6.54348">
        <ele>653.1227</ele>
        <time>2020-10-18T09:19:05Z</time>
      </trkpt>
      <trkpt lat="46.37257" lon="6.54334">
        <ele>652.9053</ele>
        <time>2020-10-18T09:19:10Z</time>
      </trkpt>
      <trkpt lat="46.37261" lon="6.54317">
        <ele>652.418</ele>
        <time>2020-10-18T09:19:15Z</time>
      </trkpt>
      <trkpt lat="46.37266" lon="6.54303">
        <ele>652.3345</ele>
        <time>2020-10-18T09:19:20Z</time>
      </trkpt>
      <trkpt lat="46.37275" lon="6.5429">
        <ele>652.5328</ele>
        <time>2020-10-18T09:19:25Z</time>
      </trkpt>
      <trkpt lat="46.37283" lon="6.5428">
        <ele>652.58813</ele>
        <time>2020-10-18T09:19:30Z</time>
      </trkpt>
      <trkpt lat="46.37291" lon="6.5427">
        <ele>652.6526</ele>
        <time>2020-10-18T09:19:35Z</time>
      </trkpt>
      <trkpt lat="46.373" lon="6.5426">
        <ele>652.41907</ele>
        <time>2020-10-18T09:19:40Z</time>
      </trkpt>
      <trkpt lat="46.37309" lon="6.54249">
        <ele>652.0295</ele>
        <time>2020-10-18T09:19:45Z</time>
      </trkpt>
      <trkpt lat="46.37317" lon="6.54236">
        <ele>652.0194</ele>
        <time>2020-10-18T09:19:50Z</time>
      </trkpt>
      <trkpt lat="46.37323" lon="6.54223">
        <ele>652.22473</ele>
        <time>2020-10-18T09:19:55Z</time>
      </trkpt>
      <trkpt lat="46.37329" lon="6.54206">
        <ele>652.52875</ele>
        <time>2020-10-18T09:20:00Z</time>
      </trkpt>
      <trkpt lat="46.37334" lon="6.54192">
        <ele>652.3194</ele>
        <time>2020-10-18T09:20:05Z</time>
      </trkpt>
      <trkpt lat="46.37338" lon="6.54175">
        <ele>652.6929</ele>
        <time>2020-10-18T09:20:10Z</time>
      </trkpt>
      <trkpt lat="46.37341" lon="6.5416">
        <ele>652.6566</ele>
        <time>2020-10-18T09:20:15Z</time>
      </trkpt>
      <trkpt lat="46.37343" lon="6.54145">
        <ele>652.9918</ele>
        <time>2020-10-18T09:20:20Z</time>
      </trkpt>
      <trkpt lat="46.37347" lon="6.54129">
        <ele>653.2445</ele>
        <time>2020-10-18T09:20:25Z</time>
      </trkpt>
      <trkpt lat="46.37351" lon="6.54114">
        <ele>653.8787</ele>
        <time>2020-10-18T09:20:30Z</time>
      </trkpt>
      <trkpt lat="46.37352" lon="6.54098">
        <ele>654.7546</ele>
        <time>2020-10-18T09:20:35Z</time>
      </trkpt>
      <trkpt lat="46.3735" lon="6.54082">
        <ele>655.45935</ele>
        <time>2020-10-18T09:20:40Z</time>
      </trkpt>
      <trkpt lat="46.37339" lon="6.54061">
        <ele>655.9104</ele>
        <time>2020-10-18T09:20:49Z</time>
      </trkpt>
      <trkpt lat="46.37331" lon="6.54049">
        <ele>656.42084</ele>
        <time>2020-10-18T09:20:54Z</time>
      </trkpt>
      <trkpt lat="46.37321" lon="6.54037">
        <ele>656.5981</ele>
        <time>2020-10-18T09:20:59Z</time>
      </trkpt>
      <trkpt lat="46.3731" lon="6.54025">
        <ele>656.6373</ele>
        <time>2020-10-18T09:21:04Z</time>
      </trkpt>
      <trkpt lat="46.37302" lon="6.54013">
        <ele>656.60614</ele>
        <time>2020-10-18T09:21:09Z</time>
      </trkpt>
      <trkpt lat="46.3729" lon="6.54001">
        <ele>656.87396</ele>
        <time>2020-10-18T09:21:15Z</time>
      </trkpt>
      <trkpt lat="46.37281" lon="6.53988">
        <ele>657.14984</ele>
        <time>2020-10-18T09:21:20Z</time>
      </trkpt>
      <trkpt lat="46.37273" lon="6.53976">
        <ele>656.97864</ele>
        <time>2020-10-18T09:21:25Z</time>
      </trkpt>
      <trkpt lat="46.37265" lon="6.53963">
        <ele>656.71387</ele>
        <time>2020-10-18T09:21:30Z</time>
      </trkpt>
      <trkpt lat="46.37257" lon="6.5395">
        <ele>656.83167</ele>
        <time>2020-10-18T09:21:35Z</time>
      </trkpt>
      <trkpt lat="46.37249" lon="6.53938">
        <ele>656.733</ele>
        <time>2020-10-18T09:21:40Z</time>
      </trkpt>
      <trkpt lat="46.37242" lon="6.53924">
        <ele>657.2072</ele>
        <time>2020-10-18T09:21:45Z</time>
      </trkpt>
      <trkpt lat="46.37232" lon="6.5391">
        <ele>657.172</ele>
        <time>2020-10-18T09:21:50Z</time>
      </trkpt>
      <trkpt lat="46.37221" lon="6.53898">
        <ele>657.34515</ele>
        <time>2020-10-18T09:21:55Z</time>
      </trkpt>
      <trkpt lat="46.37211" lon="6.53889">
        <ele>657.1599</ele>
        <time>2020-10-18T09:22:00Z</time>
      </trkpt>
      <trkpt lat="46.37201" lon="6.53879">
        <ele>657.13574</ele>
        <time>2020-10-18T09:22:05Z</time>
      </trkpt>
      <trkpt lat="46.37191" lon="6.53871">
        <ele>657.4307</ele>
        <time>2020-10-18T09:22:10Z</time>
      </trkpt>
      <trkpt lat="46.3718" lon="6.53862">
        <ele>657.53345</ele>
        <time>2020-10-18T09:22:15Z</time>
      </trkpt>
      <trkpt lat="46.3717" lon="6.53853">
        <ele>657.78217</ele>
        <time>2020-10-18T09:22:20Z</time>
      </trkpt>
      <trkpt lat="46.37161" lon="6.53842">
        <ele>657.54956</ele>
        <time>2020-10-18T09:22:25Z</time>
      </trkpt>
      <trkpt lat="46.37151" lon="6.53831">
        <ele>656.88904</ele>
        <time>2020-10-18T09:22:30Z</time>
      </trkpt>
      <trkpt lat="46.3714" lon="6.53821">
        <ele>655.8611</ele>
        <time>2020-10-18T09:22:35Z</time>
      </trkpt>
      <trkpt lat="46.3713" lon="6.53811">
        <ele>654.3479</ele>
        <time>2020-10-18T09:22:40Z</time>
      </trkpt>
      <trkpt lat="46.37119" lon="6.53803">
        <ele>653.3432</ele>
        <time>2020-10-18T09:22:45Z</time>
      </trkpt>
      <trkpt lat="46.37106" lon="6.538">
        <ele>652.0295</ele>
        <time>2020-10-18T09:22:50Z</time>
      </trkpt>
      <trkpt lat="46.37094" lon="6.538">
        <ele>651.1537</ele>
        <time>2020-10-18T09:22:55Z</time>
      </trkpt>
      <trkpt lat="46.37081" lon="6.53802">
        <ele>650.4954</ele>
        <time>2020-10-18T09:23:00Z</time>
      </trkpt>
      <trkpt lat="46.37068" lon="6.53808">
        <ele>649.511</ele>
        <time>2020-10-18T09:23:05Z</time>
      </trkpt>
      <trkpt lat="46.37056" lon="6.53824">
        <ele>648.62225</ele>
        <time>2020-10-18T09:23:10Z</time>
      </trkpt>
      <trkpt lat="46.37037" lon="6.53857">
        <ele>647.7195</ele>
        <time>2020-10-18T09:23:19Z</time>
      </trkpt>
      <trkpt lat="46.37026" lon="6.53874">
        <ele>647.65607</ele>
        <time>2020-10-18T09:23:24Z</time>
      </trkpt>
      <trkpt lat="46.37018" lon="6.53888">
        <ele>647.5816</ele>
        <time>2020-10-18T09:23:29Z</time>
      </trkpt>
      <trkpt lat="46.3701" lon="6.53902">
        <ele>647.5021</ele>
        <time>2020-10-18T09:23:34Z</time>
      </trkpt>
      <trkpt lat="46.37" lon="6.53912">
        <ele>646.9133</ele>
        <time>2020-10-18T09:23:39Z</time>
      </trkpt>
      <trkpt lat="46.36986" lon="6.53911">
        <ele>646.67883</ele>
        <time>2020-10-18T09:23:45Z</time>
      </trkpt>
      <trkpt lat="46.36973" lon="6.53905">
        <ele>646.4856</ele>
        <time>2020-10-18T09:23:50Z</time>
      </trkpt>
      <trkpt lat="46.3696" lon="6.539">
        <ele>646.3085</ele>
        <time>2020-10-18T09:23:55Z</time>
      </trkpt>
      <trkpt lat="46.36946" lon="6.53894">
        <ele>645.8124</ele>
        <time>2020-10-18T09:24:00Z</time>
      </trkpt>
      <trkpt lat="46.36934" lon="6.5389">
        <ele>644.68524</ele>
        <time>2020-10-18T09:24:05Z</time>
      </trkpt>
      <trkpt lat="46.36921" lon="6.53887">
        <ele>644.36725</ele>
        <time>2020-10-18T09:24:10Z</time>
      </trkpt>
      <trkpt lat="46.36908" lon="6.5388">
        <ele>644.15295</ele>
        <time>2020-10-18T09:24:15Z</time>
      </trkpt>
      <trkpt lat="46.36897" lon="6.53874">
        <ele>644.1952</ele>
        <time>2020-10-18T09:24:20Z</time>
      </trkpt>
      <trkpt lat="46.36886" lon="6.53864">
        <ele>643.8883</ele>
        <time>2020-10-18T09:24:25Z</time>
      </trkpt>
      <trkpt lat="46.36875" lon="6.53852">
        <ele>644.16</ele>
        <time>2020-10-18T09:24:30Z</time>
      </trkpt>
      <trkpt lat="46.36859" lon="6.53837">
        <ele>643.67596</ele>
        <time>2020-10-18T09:24:39Z</time>
      </trkpt>
      <trkpt lat="46.36849" lon="6.53828">
        <ele>643.5502</ele>
        <time>2020-10-18T09:24:45Z</time>
      </trkpt>
      <trkpt lat="46.36839" lon="6.53818">
        <ele>643.34595</ele>
        <time>2020-10-18T09:24:50Z</time>
      </trkpt>
      <trkpt lat="46.36829" lon="6.53807">
        <ele>643.0098</ele>
        <time>2020-10-18T09:24:55Z</time>
      </trkpt>
      <trkpt lat="46.36808" lon="6.53788">
        <ele>643.02094</ele>
        <time>2020-10-18T09:25:05Z</time>
      </trkpt>
      <trkpt lat="46.36797" lon="6.5378">
        <ele>642.7915</ele>
        <time>2020-10-18T09:25:10Z</time>
      </trkpt>
      <trkpt lat="46.36786" lon="6.53776">
        <ele>643.01587</ele>
        <time>2020-10-18T09:25:15Z</time>
      </trkpt>
      <trkpt lat="46.36775" lon="6.53771">
        <ele>642.96356</ele>
        <time>2020-10-18T09:25:20Z</time>
      </trkpt>
      <trkpt lat="46.36764" lon="6.53763">
        <ele>642.93134</ele>
        <time>2020-10-18T09:25:25Z</time>
      </trkpt>
      <trkpt lat="46.36753" lon="6.53757">
        <ele>642.27936</ele>
        <time>2020-10-18T09:25:30Z</time>
      </trkpt>
      <trkpt lat="46.36741" lon="6.53757">
        <ele>641.4633</ele>
        <time>2020-10-18T09:25:35Z</time>
      </trkpt>
      <trkpt lat="46.36726" lon="6.53757">
        <ele>640.7067</ele>
        <time>2020-10-18T09:25:40Z</time>
      </trkpt>
      <trkpt lat="46.36714" lon="6.53757">
        <ele>640.26904</ele>
        <time>2020-10-18T09:25:45Z</time>
      </trkpt>
      <trkpt lat="46.36702" lon="6.53756">
        <ele>639.928</ele>
        <time>2020-10-18T09:25:50Z</time>
      </trkpt>
      <trkpt lat="46.36689" lon="6.53751">
        <ele>639.6805</ele>
        <time>2020-10-18T09:25:55Z</time>
      </trkpt>
      <trkpt lat="46.36675" lon="6.53748">
        <ele>639.54364</ele>
        <time>2020-10-18T09:26:00Z</time>
      </trkpt>
      <trkpt lat="46.36664" lon="6.53746">
        <ele>639.0376</ele>
        <time>2020-10-18T09:26:05Z</time>
      </trkpt>
      <trkpt lat="46.36655" lon="6.53744">
        <ele>639.0869</ele>
        <time>2020-10-18T09:26:10Z</time>
      </trkpt>
      <trkpt lat="46.36644" lon="6.5374">
        <ele>638.7398</ele>
        <time>2020-10-18T09:26:15Z</time>
      </trkpt>
      <trkpt lat="46.36631" lon="6.53735">
        <ele>639.2308</ele>
        <time>2020-10-18T09:26:20Z</time>
      </trkpt>
      <trkpt lat="46.36621" lon="6.53732">
        <ele>638.8022</ele>
        <time>2020-10-18T09:26:25Z</time>
      </trkpt>
      <trkpt lat="46.36611" lon="6.53728">
        <ele>638.3354</ele>
        <time>2020-10-18T09:26:30Z</time>
      </trkpt>
      <trkpt lat="46.36598" lon="6.53726">
        <ele>638.28107</ele>
        <time>2020-10-18T09:26:35Z</time>
      </trkpt>
      <trkpt lat="46.36594" lon="6.53712">
        <ele>638.8334</ele>
        <time>2020-10-18T09:26:40Z</time>
      </trkpt>
      <trkpt lat="46.36593" lon="6.53692">
        <ele>638.48126</ele>
        <time>2020-10-18T09:26:45Z</time>
      </trkpt>
      <trkpt lat="46.36592" lon="6.53672">
        <ele>638.1583</ele>
        <time>2020-10-18T09:26:50Z</time>
      </trkpt>
      <trkpt lat="46.36592" lon="6.53653">
        <ele>637.89075</ele>
        <time>2020-10-18T09:26:55Z</time>
      </trkpt>
      <trkpt lat="46.36593" lon="6.53633">
        <ele>637.6312</ele>
        <time>2020-10-18T09:27:00Z</time>
      </trkpt>
      <trkpt lat="46.36595" lon="6.53614">
        <ele>636.8033</ele>
        <time>2020-10-18T09:27:05Z</time>
      </trkpt>
      <trkpt lat="46.36599" lon="6.53597">
        <ele>635.8477</ele>
        <time>2020-10-18T09:27:10Z</time>
      </trkpt>
      <trkpt lat="46.36605" lon="6.5358">
        <ele>635.1647</ele>
        <time>2020-10-18T09:27:15Z</time>
      </trkpt>
      <trkpt lat="46.3661" lon="6.53562">
        <ele>634.3469</ele>
        <time>2020-10-18T09:27:20Z</time>
      </trkpt>
      <trkpt lat="46.36616" lon="6.53544">
        <ele>633.20935</ele>
        <time>2020-10-18T09:27:25Z</time>
      </trkpt>
      <trkpt lat="46.36611" lon="6.53529">
        <ele>632.3022</ele>
        <time>2020-10-18T09:27:30Z</time>
      </trkpt>
      <trkpt lat="46.36601" lon="6.53516">
        <ele>631.69073</ele>
        <time>2020-10-18T09:27:35Z</time>
      </trkpt>
      <trkpt lat="46.36593" lon="6.53503">
        <ele>631.4332</ele>
        <time>2020-10-18T09:27:40Z</time>
      </trkpt>
      <trkpt lat="46.36584" lon="6.5349">
        <ele>631.4001</ele>
        <time>2020-10-18T09:27:45Z</time>
      </trkpt>
      <trkpt lat="46.36575" lon="6.53477">
        <ele>631.04706</ele>
        <time>2020-10-18T09:27:50Z</time>
      </trkpt>
      <trkpt lat="46.36567" lon="6.53465">
        <ele>631.44434</ele>
        <time>2020-10-18T09:27:55Z</time>
      </trkpt>
      <trkpt lat="46.36557" lon="6.53454">
        <ele>631.34875</ele>
        <time>2020-10-18T09:28:00Z</time>
      </trkpt>
      <trkpt lat="46.36548" lon="6.53442">
        <ele>631.29346</ele>
        <time>2020-10-18T09:28:05Z</time>
      </trkpt>
      <trkpt lat="46.36539" lon="6.53429">
        <ele>631.82043</ele>
        <time>2020-10-18T09:28:10Z</time>
      </trkpt>
      <trkpt lat="46.36531" lon="6.53416">
        <ele>632.099</ele>
        <time>2020-10-18T09:28:15Z</time>
      </trkpt>
      <trkpt lat="46.36521" lon="6.53406">
        <ele>632.4118</ele>
        <time>2020-10-18T09:28:20Z</time>
      </trkpt>
      <trkpt lat="46.36512" lon="6.53394">
        <ele>632.6904</ele>
        <time>2020-10-18T09:28:25Z</time>
      </trkpt>
      <trkpt lat="46.36503" lon="6.53382">
        <ele>631.921</ele>
        <time>2020-10-18T09:28:30Z</time>
      </trkpt>
      <trkpt lat="46.36491" lon="6.53372">
        <ele>631.2251</ele>
        <time>2020-10-18T09:28:35Z</time>
      </trkpt>
      <trkpt lat="46.3648" lon="6.53363">
        <ele>630.9385</ele>
        <time>2020-10-18T09:28:40Z</time>
      </trkpt>
      <trkpt lat="46.36469" lon="6.53353">
        <ele>630.9093</ele>
        <time>2020-10-18T09:28:45Z</time>
      </trkpt>
      <trkpt lat="46.36459" lon="6.53344">
        <ele>630.72723</ele>
        <time>2020-10-18T09:28:50Z</time>
      </trkpt>
      <trkpt lat="46.36449" lon="6.53335">
        <ele>630.80774</ele>
        <time>2020-10-18T09:28:55Z</time>
      </trkpt>
      <trkpt lat="46.36438" lon="6.53327">
        <ele>631.0873</ele>
        <time>2020-10-18T09:29:00Z</time>
      </trkpt>
      <trkpt lat="46.3643" lon="6.53314">
        <ele>630.12585</ele>
        <time>2020-10-18T09:29:05Z</time>
      </trkpt>
      <trkpt lat="46.36425" lon="6.533">
        <ele>630.56836</ele>
        <time>2020-10-18T09:29:10Z</time>
      </trkpt>
      <trkpt lat="46.36419" lon="6.53286">
        <ele>629.9489</ele>
        <time>2020-10-18T09:29:15Z</time>
      </trkpt>
      <trkpt lat="46.36412" lon="6.5327">
        <ele>629.3606</ele>
        <time>2020-10-18T09:29:20Z</time>
      </trkpt>
      <trkpt lat="46.36406" lon="6.53255">
        <ele>629.24194</ele>
        <time>2020-10-18T09:29:25Z</time>
      </trkpt>
      <trkpt lat="46.364" lon="6.53242">
        <ele>628.2173</ele>
        <time>2020-10-18T09:29:30Z</time>
      </trkpt>
      <trkpt lat="46.36396" lon="6.53231">
        <ele>627.441</ele>
        <time>2020-10-18T09:29:35Z</time>
      </trkpt>
      <trkpt lat="46.36398" lon="6.5322">
        <ele>626.60944</ele>
        <time>2020-10-18T09:29:40Z</time>
      </trkpt>
      <trkpt lat="46.36408" lon="6.53192">
        <ele>625.31445</ele>
        <time>2020-10-18T09:29:50Z</time>
      </trkpt>
      <trkpt lat="46.36415" lon="6.53178">
        <ele>624.89215</ele>
        <time>2020-10-18T09:29:55Z</time>
      </trkpt>
      <trkpt lat="46.36421" lon="6.53166">
        <ele>625.0862</ele>
        <time>2020-10-18T09:30:00Z</time>
      </trkpt>
      <trkpt lat="46.36428" lon="6.53153">
        <ele>624.93036</ele>
        <time>2020-10-18T09:30:05Z</time>
      </trkpt>
      <trkpt lat="46.36435" lon="6.53139">
        <ele>624.84393</ele>
        <time>2020-10-18T09:30:10Z</time>
      </trkpt>
      <trkpt lat="46.36438" lon="6.53123">
        <ele>624.20044</ele>
        <time>2020-10-18T09:30:15Z</time>
      </trkpt>
      <trkpt lat="46.36442" lon="6.53107">
        <ele>623.9672</ele>
        <time>2020-10-18T09:30:20Z</time>
      </trkpt>
      <trkpt lat="46.36442" lon="6.53094">
        <ele>623.5691</ele>
        <time>2020-10-18T09:30:25Z</time>
      </trkpt>
      <trkpt lat="46.36443" lon="6.53081">
        <ele>622.801</ele>
        <time>2020-10-18T09:30:30Z</time>
      </trkpt>
      <trkpt lat="46.36445" lon="6.53058">
        <ele>622.0099</ele>
        <time>2020-10-18T09:30:35Z</time>
      </trkpt>
      <trkpt lat="46.36448" lon="6.53057">
        <ele>622.5467</ele>
        <time>2020-10-18T09:30:40Z</time>
      </trkpt>
      <trkpt lat="46.36453" lon="6.53066">
        <ele>622.91364</ele>
        <time>2020-10-18T09:30:45Z</time>
      </trkpt>
      <trkpt lat="46.36461" lon="6.53068">
        <ele>622.6643</ele>
        <time>2020-10-18T09:30:50Z</time>
      </trkpt>
      <trkpt lat="46.36475" lon="6.53054">
        <ele>622.4703</ele>
        <time>2020-10-18T09:30:55Z</time>
      </trkpt>
      <trkpt lat="46.36488" lon="6.53042">
        <ele>622.34265</ele>
        <time>2020-10-18T09:31:00Z</time>
      </trkpt>
      <trkpt lat="46.36499" lon="6.53031">
        <ele>622.2441</ele>
        <time>2020-10-18T09:31:05Z</time>
      </trkpt>
      <trkpt lat="46.3651" lon="6.53023">
        <ele>622.0149</ele>
        <time>2020-10-18T09:31:10Z</time>
      </trkpt>
      <trkpt lat="46.3652" lon="6.53013">
        <ele>621.77966</ele>
        <time>2020-10-18T09:31:15Z</time>
      </trkpt>
      <trkpt lat="46.36529" lon="6.53001">
        <ele>621.6128</ele>
        <time>2020-10-18T09:31:20Z</time>
      </trkpt>
      <trkpt lat="46.36538" lon="6.52989">
        <ele>621.3263</ele>
        <time>2020-10-18T09:31:25Z</time>
      </trkpt>
      <trkpt lat="46.36548" lon="6.52978">
        <ele>621.49316</ele>
        <time>2020-10-18T09:31:30Z</time>
      </trkpt>
      <trkpt lat="46.36557" lon="6.52965">
        <ele>621.3353</ele>
        <time>2020-10-18T09:31:35Z</time>
      </trkpt>
      <trkpt lat="46.36567" lon="6.52953">
        <ele>621.43286</ele>
        <time>2020-10-18T09:31:40Z</time>
      </trkpt>
      <trkpt lat="46.36585" lon="6.5293">
        <ele>621.27203</ele>
        <time>2020-10-18T09:31:50Z</time>
      </trkpt>
      <trkpt lat="46.36594" lon="6.52919">
        <ele>620.7282</ele>
        <time>2020-10-18T09:31:55Z</time>
      </trkpt>
      <trkpt lat="46.36602" lon="6.52909">
        <ele>620.498</ele>
        <time>2020-10-18T09:32:00Z</time>
      </trkpt>
      <trkpt lat="46.36606" lon="6.52896">
        <ele>619.60846</ele>
        <time>2020-10-18T09:32:05Z</time>
      </trkpt>
      <trkpt lat="46.36596" lon="6.52879">
        <ele>618.79224</ele>
        <time>2020-10-18T09:32:10Z</time>
      </trkpt>
      <trkpt lat="46.36585" lon="6.52864">
        <ele>617.56805</ele>
        <time>2020-10-18T09:32:15Z</time>
      </trkpt>
      <trkpt lat="46.36574" lon="6.52851">
        <ele>616.8625</ele>
        <time>2020-10-18T09:32:20Z</time>
      </trkpt>
      <trkpt lat="46.36563" lon="6.5284">
        <ele>616.3791</ele>
        <time>2020-10-18T09:32:25Z</time>
      </trkpt>
      <trkpt lat="46.3656" lon="6.52823">
        <ele>615.5902</ele>
        <time>2020-10-18T09:32:30Z</time>
      </trkpt>
      <trkpt lat="46.36566" lon="6.52807">
        <ele>613.93805</ele>
        <time>2020-10-18T09:32:35Z</time>
      </trkpt>
      <trkpt lat="46.36574" lon="6.52792">
        <ele>612.89</ele>
        <time>2020-10-18T09:32:40Z</time>
      </trkpt>
      <trkpt lat="46.36581" lon="6.52777">
        <ele>611.4933</ele>
        <time>2020-10-18T09:32:45Z</time>
      </trkpt>
      <trkpt lat="46.36588" lon="6.52762">
        <ele>610.1741</ele>
        <time>2020-10-18T09:32:50Z</time>
      </trkpt>
      <trkpt lat="46.36595" lon="6.52748">
        <ele>607.84924</ele>
        <time>2020-10-18T09:32:55Z</time>
      </trkpt>
      <trkpt lat="46.36602" lon="6.52732">
        <ele>606.5885</ele>
        <time>2020-10-18T09:33:00Z</time>
      </trkpt>
      <trkpt lat="46.36609" lon="6.52717">
        <ele>605.23236</ele>
        <time>2020-10-18T09:33:05Z</time>
      </trkpt>
      <trkpt lat="46.36616" lon="6.527">
        <ele>604.35443</ele>
        <time>2020-10-18T09:33:10Z</time>
      </trkpt>
      <trkpt lat="46.36621" lon="6.52683">
        <ele>603.13403</ele>
        <time>2020-10-18T09:33:15Z</time>
      </trkpt>
      <trkpt lat="46.36627" lon="6.52665">
        <ele>602.423</ele>
        <time>2020-10-18T09:33:20Z</time>
      </trkpt>
      <trkpt lat="46.3663" lon="6.52644">
        <ele>601.1926</ele>
        <time>2020-10-18T09:33:25Z</time>
      </trkpt>
      <trkpt lat="46.36636" lon="6.52627">
        <ele>599.7314</ele>
        <time>2020-10-18T09:33:30Z</time>
      </trkpt>
      <trkpt lat="46.36644" lon="6.52609">
        <ele>598.8527</ele>
        <time>2020-10-18T09:33:35Z</time>
      </trkpt>
      <trkpt lat="46.36651" lon="6.52594">
        <ele>597.7853</ele>
        <time>2020-10-18T09:33:40Z</time>
      </trkpt>
      <trkpt lat="46.3666" lon="6.52581">
        <ele>596.8253</ele>
        <time>2020-10-18T09:33:45Z</time>
      </trkpt>
      <trkpt lat="46.36668" lon="6.52567">
        <ele>596.19977</ele>
        <time>2020-10-18T09:33:50Z</time>
      </trkpt>
      <trkpt lat="46.36674" lon="6.5255">
        <ele>595.87445</ele>
        <time>2020-10-18T09:33:55Z</time>
      </trkpt>
      <trkpt lat="46.36677" lon="6.52534">
        <ele>595.2047</ele>
        <time>2020-10-18T09:34:00Z</time>
      </trkpt>
      <trkpt lat="46.3668" lon="6.52515">
        <ele>593.87744</ele>
        <time>2020-10-18T09:34:05Z</time>
      </trkpt>
      <trkpt lat="46.36682" lon="6.52498">
        <ele>592.86444</ele>
        <time>2020-10-18T09:34:10Z</time>
      </trkpt>
      <trkpt lat="46.36684" lon="6.52478">
        <ele>591.9117</ele>
        <time>2020-10-18T09:34:15Z</time>
      </trkpt>
      <trkpt lat="46.36686" lon="6.5246">
        <ele>590.7733</ele>
        <time>2020-10-18T09:34:20Z</time>
      </trkpt>
      <trkpt lat="46.36689" lon="6.52442">
        <ele>590.01044</ele>
        <time>2020-10-18T09:34:25Z</time>
      </trkpt>
      <trkpt lat="46.36692" lon="6.52424">
        <ele>589.54364</ele>
        <time>2020-10-18T09:34:30Z</time>
      </trkpt>
      <trkpt lat="46.36696" lon="6.52407">
        <ele>588.3663</ele>
        <time>2020-10-18T09:34:35Z</time>
      </trkpt>
      <trkpt lat="46.36705" lon="6.5241">
        <ele>588.55896</ele>
        <time>2020-10-18T09:34:40Z</time>
      </trkpt>
      <trkpt lat="46.36716" lon="6.5242">
        <ele>588.63324</ele>
        <time>2020-10-18T09:34:45Z</time>
      </trkpt>
      <trkpt lat="46.36727" lon="6.52428">
        <ele>588.9394</ele>
        <time>2020-10-18T09:34:50Z</time>
      </trkpt>
      <trkpt lat="46.36738" lon="6.52436">
        <ele>588.97455</ele>
        <time>2020-10-18T09:34:55Z</time>
      </trkpt>
      <trkpt lat="46.36748" lon="6.52444">
        <ele>589.22046</ele>
        <time>2020-10-18T09:35:00Z</time>
      </trkpt>
      <trkpt lat="46.36758" lon="6.52453">
        <ele>589.57074</ele>
        <time>2020-10-18T09:35:05Z</time>
      </trkpt>
      <trkpt lat="46.3677" lon="6.52462">
        <ele>589.4242</ele>
        <time>2020-10-18T09:35:10Z</time>
      </trkpt>
      <trkpt lat="46.36781" lon="6.52464">
        <ele>589.901</ele>
        <time>2020-10-18T09:35:15Z</time>
      </trkpt>
      <trkpt lat="46.36791" lon="6.52463">
        <ele>590.162</ele>
        <time>2020-10-18T09:35:20Z</time>
      </trkpt>
      <trkpt lat="46.36802" lon="6.52467">
        <ele>590.424</ele>
        <time>2020-10-18T09:35:25Z</time>
      </trkpt>
      <trkpt lat="46.36814" lon="6.52472">
        <ele>590.4561</ele>
        <time>2020-10-18T09:35:30Z</time>
      </trkpt>
      <trkpt lat="46.36826" lon="6.52482">
        <ele>590.5896</ele>
        <time>2020-10-18T09:35:35Z</time>
      </trkpt>
      <trkpt lat="46.36837" lon="6.52489">
        <ele>590.69904</ele>
        <time>2020-10-18T09:35:40Z</time>
      </trkpt>
      <trkpt lat="46.36847" lon="6.52498">
        <ele>590.69403</ele>
        <time>2020-10-18T09:35:45Z</time>
      </trkpt>
      <trkpt lat="46.36855" lon="6.52505">
        <ele>590.98413</ele>
        <time>2020-10-18T09:35:50Z</time>
      </trkpt>
      <trkpt lat="46.36865" lon="6.52513">
        <ele>591.3234</ele>
        <time>2020-10-18T09:35:55Z</time>
      </trkpt>
      <trkpt lat="46.36876" lon="6.5252">
        <ele>591.49713</ele>
        <time>2020-10-18T09:36:00Z</time>
      </trkpt>
      <trkpt lat="46.36884" lon="6.52527">
        <ele>591.8585</ele>
        <time>2020-10-18T09:36:05Z</time>
      </trkpt>
      <trkpt lat="46.36902" lon="6.52535">
        <ele>593.265</ele>
        <time>2020-10-18T09:36:15Z</time>
      </trkpt>
      <trkpt lat="46.36915" lon="6.52539">
        <ele>593.6726</ele>
        <time>2020-10-18T09:36:20Z</time>
      </trkpt>
      <trkpt lat="46.36928" lon="6.52538">
        <ele>593.47986</ele>
        <time>2020-10-18T09:36:25Z</time>
      </trkpt>
      <trkpt lat="46.3694" lon="6.5254">
        <ele>593.36743</ele>
        <time>2020-10-18T09:36:30Z</time>
      </trkpt>
      <trkpt lat="46.3696" lon="6.52542">
        <ele>592.83734</ele>
        <time>2020-10-18T09:36:39Z</time>
      </trkpt>
      <trkpt lat="46.36971" lon="6.52544">
        <ele>592.7239</ele>
        <time>2020-10-18T09:36:44Z</time>
      </trkpt>
      <trkpt lat="46.36982" lon="6.52551">
        <ele>592.48193</ele>
        <time>2020-10-18T09:36:49Z</time>
      </trkpt>
      <trkpt lat="46.36996" lon="6.52561">
        <ele>591.994</ele>
        <time>2020-10-18T09:36:55Z</time>
      </trkpt>
      <trkpt lat="46.37005" lon="6.52567">
        <ele>591.2582</ele>
        <time>2020-10-18T09:37:00Z</time>
      </trkpt>
      <trkpt lat="46.37013" lon="6.52573">
        <ele>590.941</ele>
        <time>2020-10-18T09:37:05Z</time>
      </trkpt>
      <trkpt lat="46.37021" lon="6.52586">
        <ele>591.27527</ele>
        <time>2020-10-18T09:37:10Z</time>
      </trkpt>
      <trkpt lat="46.3703" lon="6.52602">
        <ele>591.34753</ele>
        <time>2020-10-18T09:37:15Z</time>
      </trkpt>
      <trkpt lat="46.37038" lon="6.52613">
        <ele>591.4028</ele>
        <time>2020-10-18T09:37:20Z</time>
      </trkpt>
      <trkpt lat="46.37046" lon="6.52624">
        <ele>591.58246</ele>
        <time>2020-10-18T09:37:25Z</time>
      </trkpt>
      <trkpt lat="46.37055" lon="6.52634">
        <ele>591.74207</ele>
        <time>2020-10-18T09:37:30Z</time>
      </trkpt>
      <trkpt lat="46.37063" lon="6.52646">
        <ele>592.2571</ele>
        <time>2020-10-18T09:37:35Z</time>
      </trkpt>
      <trkpt lat="46.37073" lon="6.52657">
        <ele>591.67377</ele>
        <time>2020-10-18T09:37:40Z</time>
      </trkpt>
      <trkpt lat="46.37084" lon="6.52669">
        <ele>592.1175</ele>
        <time>2020-10-18T09:37:45Z</time>
      </trkpt>
      <trkpt lat="46.37093" lon="6.52681">
        <ele>593.009</ele>
        <time>2020-10-18T09:37:50Z</time>
      </trkpt>
      <trkpt lat="46.37101" lon="6.52693">
        <ele>592.87146</ele>
        <time>2020-10-18T09:37:55Z</time>
      </trkpt>
      <trkpt lat="46.37108" lon="6.52704">
        <ele>592.2651</ele>
        <time>2020-10-18T09:38:00Z</time>
      </trkpt>
      <trkpt lat="46.37118" lon="6.52718">
        <ele>592.07935</ele>
        <time>2020-10-18T09:38:05Z</time>
      </trkpt>
      <trkpt lat="46.37128" lon="6.52729">
        <ele>591.4389</ele>
        <time>2020-10-18T09:38:10Z</time>
      </trkpt>
      <trkpt lat="46.37137" lon="6.5274">
        <ele>590.0847</ele>
        <time>2020-10-18T09:38:15Z</time>
      </trkpt>
      <trkpt lat="46.37147" lon="6.52743">
        <ele>588.7798</ele>
        <time>2020-10-18T09:38:20Z</time>
      </trkpt>
      <trkpt lat="46.3716" lon="6.5274">
        <ele>587.4559</ele>
        <time>2020-10-18T09:38:25Z</time>
      </trkpt>
      <trkpt lat="46.37172" lon="6.52733">
        <ele>586.29266</ele>
        <time>2020-10-18T09:38:30Z</time>
      </trkpt>
      <trkpt lat="46.37182" lon="6.5273">
        <ele>584.93976</ele>
        <time>2020-10-18T09:38:35Z</time>
      </trkpt>
      <trkpt lat="46.37193" lon="6.52726">
        <ele>583.5529</ele>
        <time>2020-10-18T09:38:40Z</time>
      </trkpt>
      <trkpt lat="46.37204" lon="6.52727">
        <ele>582.72504</ele>
        <time>2020-10-18T09:38:45Z</time>
      </trkpt>
      <trkpt lat="46.37215" lon="6.52732">
        <ele>582.15405</ele>
        <time>2020-10-18T09:38:50Z</time>
      </trkpt>
      <trkpt lat="46.37227" lon="6.52738">
        <ele>580.7142</ele>
        <time>2020-10-18T09:38:55Z</time>
      </trkpt>
      <trkpt lat="46.3724" lon="6.52749">
        <ele>580.58875</ele>
        <time>2020-10-18T09:39:00Z</time>
      </trkpt>
      <trkpt lat="46.37252" lon="6.5276">
        <ele>580.1422</ele>
        <time>2020-10-18T09:39:05Z</time>
      </trkpt>
      <trkpt lat="46.37273" lon="6.52781">
        <ele>579.76196</ele>
        <time>2020-10-18T09:39:14Z</time>
      </trkpt>
      <trkpt lat="46.37285" lon="6.52794">
        <ele>579.7479</ele>
        <time>2020-10-18T09:39:19Z</time>
      </trkpt>
      <trkpt lat="46.37295" lon="6.52805">
        <ele>579.70276</ele>
        <time>2020-10-18T09:39:24Z</time>
      </trkpt>
      <trkpt lat="46.37304" lon="6.52818">
        <ele>579.32654</ele>
        <time>2020-10-18T09:39:29Z</time>
      </trkpt>
      <trkpt lat="46.37314" lon="6.52832">
        <ele>579.3646</ele>
        <time>2020-10-18T09:39:34Z</time>
      </trkpt>
      <trkpt lat="46.37323" lon="6.52845">
        <ele>579.12683</ele>
        <time>2020-10-18T09:39:39Z</time>
      </trkpt>
      <trkpt lat="46.37333" lon="6.52857">
        <ele>579.07166</ele>
        <time>2020-10-18T09:39:44Z</time>
      </trkpt>
      <trkpt lat="46.37342" lon="6.52869">
        <ele>578.5871</ele>
        <time>2020-10-18T09:39:49Z</time>
      </trkpt>
      <trkpt lat="46.37352" lon="6.5288">
        <ele>577.95605</ele>
        <time>2020-10-18T09:39:54Z</time>
      </trkpt>
      <trkpt lat="46.3736" lon="6.52891">
        <ele>577.3872</ele>
        <time>2020-10-18T09:39:59Z</time>
      </trkpt>
      <trkpt lat="46.37369" lon="6.529">
        <ele>576.715</ele>
        <time>2020-10-18T09:40:04Z</time>
      </trkpt>
      <trkpt lat="46.37384" lon="6.52912">
        <ele>576.0529</ele>
        <time>2020-10-18T09:40:10Z</time>
      </trkpt>
      <trkpt lat="46.37396" lon="6.5292">
        <ele>575.3427</ele>
        <time>2020-10-18T09:40:15Z</time>
      </trkpt>
      <trkpt lat="46.37408" lon="6.52928">
        <ele>574.8</ele>
        <time>2020-10-18T09:40:20Z</time>
      </trkpt>
      <trkpt lat="46.37419" lon="6.52937">
        <ele>574.1741</ele>
        <time>2020-10-18T09:40:25Z</time>
      </trkpt>
      <trkpt lat="46.37431" lon="6.52948">
        <ele>573.16</ele>
        <time>2020-10-18T09:40:30Z</time>
      </trkpt>
      <trkpt lat="46.37442" lon="6.52959">
        <ele>572.174</ele>
        <time>2020-10-18T09:40:35Z</time>
      </trkpt>
      <trkpt lat="46.37454" lon="6.52972">
        <ele>571.7568</ele>
        <time>2020-10-18T09:40:40Z</time>
      </trkpt>
      <trkpt lat="46.37468" lon="6.5298">
        <ele>570.7579</ele>
        <time>2020-10-18T09:40:45Z</time>
      </trkpt>
      <trkpt lat="46.37486" lon="6.5298">
        <ele>569.6807</ele>
        <time>2020-10-18T09:40:50Z</time>
      </trkpt>
      <trkpt lat="46.37499" lon="6.52974">
        <ele>568.5124</ele>
        <time>2020-10-18T09:40:55Z</time>
      </trkpt>
      <trkpt lat="46.37512" lon="6.52965">
        <ele>566.577</ele>
        <time>2020-10-18T09:41:00Z</time>
      </trkpt>
      <trkpt lat="46.37526" lon="6.52952">
        <ele>566.16895</ele>
        <time>2020-10-18T09:41:05Z</time>
      </trkpt>
      <trkpt lat="46.37544" lon="6.5293">
        <ele>564.67993</ele>
        <time>2020-10-18T09:41:14Z</time>
      </trkpt>
      <trkpt lat="46.37553" lon="6.52919">
        <ele>563.6523</ele>
        <time>2020-10-18T09:41:19Z</time>
      </trkpt>
      <trkpt lat="46.37562" lon="6.52909">
        <ele>562.67474</ele>
        <time>2020-10-18T09:41:24Z</time>
      </trkpt>
      <trkpt lat="46.37561" lon="6.52897">
        <ele>561.7093</ele>
        <time>2020-10-18T09:41:29Z</time>
      </trkpt>
      <trkpt lat="46.37552" lon="6.52877">
        <ele>560.54944</ele>
        <time>2020-10-18T09:41:34Z</time>
      </trkpt>
      <trkpt lat="46.37549" lon="6.52851">
        <ele>558.99567</ele>
        <time>2020-10-18T09:41:40Z</time>
      </trkpt>
      <trkpt lat="46.37548" lon="6.52831">
        <ele>557.24255</ele>
        <time>2020-10-18T09:41:45Z</time>
      </trkpt>
      <trkpt lat="46.37549" lon="6.52813">
        <ele>555.4034</ele>
        <time>2020-10-18T09:41:50Z</time>
      </trkpt>
      <trkpt lat="46.37553" lon="6.52796">
        <ele>553.395</ele>
        <time>2020-10-18T09:41:55Z</time>
      </trkpt>
      <trkpt lat="46.37558" lon="6.5278">
        <ele>551.5572</ele>
        <time>2020-10-18T09:42:00Z</time>
      </trkpt>
      <trkpt lat="46.37566" lon="6.5278">
        <ele>550.83075</ele>
        <time>2020-10-18T09:42:05Z</time>
      </trkpt>
      <trkpt lat="46.37575" lon="6.52795">
        <ele>551.23956</ele>
        <time>2020-10-18T09:42:10Z</time>
      </trkpt>
      <trkpt lat="46.37586" lon="6.52806">
        <ele>550.1814</ele>
        <time>2020-10-18T09:42:15Z</time>
      </trkpt>
      <trkpt lat="46.37605" lon="6.52824">
        <ele>549.9109</ele>
        <time>2020-10-18T09:42:25Z</time>
      </trkpt>
      <trkpt lat="46.37616" lon="6.52837">
        <ele>549.77765</ele>
        <time>2020-10-18T09:42:30Z</time>
      </trkpt>
      <trkpt lat="46.37627" lon="6.52842">
        <ele>548.41</ele>
        <time>2020-10-18T09:42:35Z</time>
      </trkpt>
      <trkpt lat="46.37637" lon="6.52846">
        <ele>547.10455</ele>
        <time>2020-10-18T09:42:40Z</time>
      </trkpt>
      <trkpt lat="46.37649" lon="6.5285">
        <ele>546.266</ele>
        <time>2020-10-18T09:42:45Z</time>
      </trkpt>
      <trkpt lat="46.37665" lon="6.52853">
        <ele>546.0486</ele>
        <time>2020-10-18T09:42:50Z</time>
      </trkpt>
      <trkpt lat="46.3768" lon="6.52859">
        <ele>545.6599</ele>
        <time>2020-10-18T09:42:55Z</time>
      </trkpt>
      <trkpt lat="46.37695" lon="6.52873">
        <ele>545.714</ele>
        <time>2020-10-18T09:43:00Z</time>
      </trkpt>
      <trkpt lat="46.37689" lon="6.52893">
        <ele>546.83105</ele>
        <time>2020-10-18T09:43:05Z</time>
      </trkpt>
      <trkpt lat="46.37676" lon="6.52882">
        <ele>546.9923</ele>
        <time>2020-10-18T09:43:10Z</time>
      </trkpt>
    </trkseg>
  </trk>
</gpx>